Oscar Dyson — WTEP — position and weather

sailwx.info

Track history (hours):
 
Tides and Currents Weather Stations Pressure Air Temp Water Temp Dewpoint Dewpoint Depression Visibility Wind Speed Wind Dir Waves Ship Positions

Oceanographic research ship Oscar Dyson (USA)

Ship's website: http://www.moc.noaa.gov/od/

Detailed information on ship capabilities available from University of Delaware's Ocean Information Center and ARCUS's ALIAS (Arctic Logistics Information and Support) project.

Last reported at 2017-Mar-27 22:00 UTC. Time now 2017-Mar-30 12:41 UTC.
Position N 57°42' W 152°24'.

Type: Ship. MMSI: 369959000.

Wind from 020 at 10 knots

Barometer 995.1 mb
Air temperature 1.7 ° C
Dewpoint -3.0 ° C
Water temperature 3.3 ° C

Date/timePositionNaut miles runAvg speedWind from/ knotsBaromVisibWave heightAir tempDewpointWater temp
2017-Mar-27 22:00N 57°42' W 152°24'3 9.2 020 / 10995.1 1.7-3.0 3.3
2017-Mar-27 21:39N 57°42' W 152°18'6 9.2 360 / 11 2.0 3.3
2017-Mar-27 21:00N 57°48' W 152°18'3 9.6 330 / 11995.4 1.4-1.0 3.3
2017-Mar-27 20:40N 57°48' W 152°12'1218.0 320 / 10 1.1 3.5
2017-Mar-27 20:00N 58°00' W 152°12'0 0.0 360 / 9995.6 1.4 0.1 3.5
2017-Mar-27 19:41N 58°00' W 152°12'1217.6 360 / 10 0.8 4.3
2017-Mar-27 19:00N 58°12' W 152°12'618.9 330 / 8996.0 -0.4-1.3 3.8
2017-Mar-27 18:41N 58°06' W 152°12'6 8.8 350 / 9 -0.2 3.8
2017-Mar-27 18:00N 58°12' W 152°12'620.0 340 / 8996.0 -0.6-1.4 3.8
2017-Mar-27 17:42N 58°06' W 152°12'6 8.6 330 / 9 -0.7 3.8
2017-Mar-27 17:00N 58°12' W 152°12'621.2 340 / 7996.2 -0.9-1.9 3.8
2017-Mar-27 16:43N 58°06' W 152°12'6 8.4 330 / 4 -1.0 3.8
2017-Mar-27 16:00N 58°12' W 152°12'0 0.0 996.3 -0.8-2.1 3.8
2017-Mar-27 14:00N 58°12' W 152°12'624.0 350 / 7996.8 0.4-1.7 3.8
2017-Mar-27 13:45N 58°06' W 152°12'6 8.0 350 / 6 0.1 3.8
2017-Mar-27 13:00N 58°12' W 152°12'625.7 360 / 8997.1 -0.2-2.3 4.0
2017-Mar-27 12:46N 58°06' W 152°12'6 7.8 360 / 9 -0.3 4.0
2017-Mar-27 12:00N 58°12' W 152°12'627.7 340 / 6997.7 -1.0-3.1 4.0
2017-Mar-27 11:47N 58°06' W 152°12'6 7.7 350 / 11 -1.3 4.0
2017-Mar-27 11:00N 58°12' W 152°12'630.0 350 / 5998.2 -0.7-2.9 4.1
2017-Mar-27 10:48N 58°06' W 152°12'6 7.5 340 / 4 -0.5 4.1
2017-Mar-27 10:00N 58°12' W 152°12'630.0 010 / 1998.7 -0.5-2.6 4.1
2017-Mar-27 09:48N 58°06' W 152°12'6 7.5 040 / 2 -0.6 4.2
2017-Mar-27 09:00N 58°12' W 152°12'632.7 999.0 -0.3-2.5 4.1
2017-Mar-27 08:49N 58°06' W 152°12'6 7.3 330 / 6 -0.5 4.1
2017-Mar-27 08:00N 58°12' W 152°12'636.0 040 / 4999.2 -0.0-2.5 4.1
2017-Mar-27 07:50N 58°06' W 152°12'6 7.2 020 / 4 0.1 4.1
2017-Mar-27 07:00N 58°12' W 152°12'640.0 060 / 5999.5 -0.0-2.4 3.8
2017-Mar-27 06:51N 58°06' W 152°12'6 7.1 060 / 5 -0.1 3.9
2017-Mar-27 06:00N 58°12' W 152°12'640.0 020 / 3999.9 -0.5-2.9 4.0
2017-Mar-27 05:51N 58°06' W 152°12'7 8.0 020 / 3 -0.7 4.0
2017-Mar-27 05:00N 58°12' W 152°18'750.9 020 / 61000.3 0.6-2.2 3.3
2017-Mar-27 04:52N 58°06' W 152°12'0 0.0 030 / 3 0.8 3.3
2017-Mar-27 04:00N 58°06' W 152°12'651.4 290 / 31000.7 0.3-1.2 4.0
2017-Mar-27 03:53N 58°00' W 152°12'3 3.6 300 / 7 0.2 4.0
2017-Mar-27 03:00N 58°00' W 152°18'0 0.0 300 / 71000.9 0.2-1.5 3.4
2017-Mar-27 02:54N 58°00' W 152°18'0 0.0 310 / 6 0.2 3.4
2017-Mar-27 02:00N 58°00' W 152°18'660.0 340 / 81001.0 -0.5-2.1 3.4
2017-Mar-27 01:54N 57°54' W 152°18'7 7.5 340 / 10 -0.4 3.4
2017-Mar-27 01:00N 58°00' W 152°12'672.0 010 / 121001.4 0.4-1.2 3.7
2017-Mar-27 00:55N 57°54' W 152°12'7 7.4 010 / 15 0.3 3.4
2017-Mar-27 00:00N 58°00' W 152°18'7 6.8 010 / 141001.8 1.2-0.4 3.6
2017-Mar-26 23:00N 57°54' W 152°12'347.8 010 / 141002.1 0.8-0.9 3.3
2017-Mar-26 22:56N 57°54' W 152°06'3 3.4 010 / 14 0.8 3.3
2017-Mar-26 22:00N 57°54' W 152°12'363.8 1002.3 0.6-1.0 3.3
2017-Mar-26 21:57N 57°54' W 152°06'0 0.0 350 / 15 1.0 3.3
2017-Mar-26 21:00N 57°54' W 152°06'395.7 350 / 181002.3 -0.0-2.2 3.5
2017-Mar-26 20:58N 57°54' W 152°00'6 6.6 340 / 20 0.2 3.5
2017-Mar-26 20:00N 57°54' W 152°12'3191.3 290 / 171002.7 0.2-3.9 3.3
2017-Mar-26 19:59N 57°54' W 152°06'7 6.9 300 / 17 -0.0 3.3
2017-Mar-26 19:00N 58°00' W 152°12'3190.8 330 / 161003.2 0.9-4.1 3.7
2017-Mar-26 18:59N 58°00' W 152°06'0 0.0 330 / 17 0.9 3.7
2017-Mar-26 18:00N 58°00' W 152°06'1235.5 310 / 171003.0 0.3-5.1 3.4
2017-Mar-26 17:39N 57°48' W 152°00'1218.5 310 / 20 -0.1 3.5
2017-Mar-26 17:00N 58°00' W 152°00'720.4 320 / 181003.0 0.2-4.1 3.5
2017-Mar-26 16:40N 57°54' W 151°54'0 0.0 320 / 17 0.3 3.5
2017-Mar-26 16:00N 57°54' W 151°54'0 0.0 320 / 131003.2 -0.1-4.4 3.6
2017-Mar-26 15:40N 57°54' W 151°54'6 9.0 340 / 15 0.4 3.5
2017-Mar-26 15:00N 58°00' W 151°54'310.0 320 / 131001.810.8 3.0-4.8-4.0
2017-Mar-26 14:41N 58°00' W 152°00'0 0.0 330 / 15 0.2 3.8
2017-Mar-26 14:00N 58°00' W 152°00'722.6 340 / 121003.5 0.4-5.4 3.7
2017-Mar-26 13:42N 57°54' W 151°54'0 0.0 320 / 16 0.1 3.5
2017-Mar-26 13:00N 57°54' W 151°54'620.0 320 / 181003.4 0.4-4.6 3.6
2017-Mar-26 12:42N 58°00' W 151°54'7 9.7 320 / 15 0.6 3.7
2017-Mar-26 12:00N 58°06' W 151°48'621.2 340 / 131003.210.8 0.8-4.4 4.1
2017-Mar-26 11:43N 58°00' W 151°48'0 0.0 340 / 14 0.7 3.7
2017-Mar-26 11:00N 58°00' W 151°48'311.9 350 / 151003.6 0.7-4.7 3.7
2017-Mar-26 10:44N 58°00' W 151°42'6 8.2 330 / 13 0.6 4.1
2017-Mar-26 10:00N 58°06' W 151°42'624.0 330 / 151003.3 0.6-4.2 3.8
2017-Mar-26 09:45N 58°00' W 151°42'7 9.1 340 / 16 0.6 3.7
2017-Mar-26 09:00N 58°06' W 151°36'0 0.0 340 / 181003.2 0.8-4.7 3.7
2017-Mar-26 08:45N 58°06' W 151°36'0 0.0 340 / 20 0.8 4.5
2017-Mar-26 08:00N 58°06' W 151°36'729.1 330 / 171002.7 1.2-4.1 4.4
2017-Mar-26 07:46N 58°00' W 151°30'911.4 330 / 14 1.1 3.7
2017-Mar-26 07:00N 57°54' W 151°42'627.7 320 / 131003.1 0.6-5.8 3.5
2017-Mar-26 06:47N 57°48' W 151°42'7 8.7 320 / 14 0.4 3.5
2017-Mar-26 06:00N 57°42' W 151°48'630.0 320 / 161003.1 0.4-6.4 3.8
2017-Mar-26 05:48N 57°36' W 151°48'7 8.5 330 / 17 0.4 4.0
2017-Mar-26 05:00N 57°30' W 151°54'632.7 340 / 151002.9 0.4-7.3 3.5
2017-Mar-26 04:49N 57°24' W 151°54'910.8 350 / 15 0.5 3.4
2017-Mar-26 04:00N 57°18' W 152°06'632.7 360 / 131002.5 1.1-6.9 3.3
2017-Mar-26 03:49N 57°12' W 152°06'7 8.4 360 / 12 1.1 3.3
2017-Mar-26 03:00N 57°06' W 152°12'636.0 280 / 21002.6 0.5-8.0 4.3
2017-Mar-26 02:50N 57°00' W 152°12'7 8.2 280 / 2 0.5 4.3
2017-Mar-26 02:00N 56°54' W 152°18'640.0 060 / 31002.7 0.5-9.5 4.1
2017-Mar-26 01:51N 56°48' W 152°18'910.5 040 / 4 0.4 4.3
2017-Mar-26 01:00N 56°42' W 152°30'322.0 060 / 71002.4 0.6-6.6 4.1
2017-Mar-26 00:51N 56°42' W 152°24'1416.1 070 / 7 0.7 4.4
2017-Mar-26 00:00N 56°30' W 152°36'1211.6 060 / 91002.1 1.0-5.6 4.6
2017-Mar-25 23:00N 56°24' W 152°18'758.8 050 / 141002.0 1.1-5.1 5.2
2017-Mar-25 22:53N 56°18' W 152°12'910.1 060 / 13 1.3 5.2
2017-Mar-25 22:00N 56°24' W 152°24'660.0 070 / 71001.8 1.4-6.2 5.2
2017-Mar-25 21:54N 56°18' W 152°24'7 7.6 050 / 11 1.4 5.2
2017-Mar-25 21:00N 56°24' W 152°30'672.0 060 / 71001.7 2.2-5.3 5.2
2017-Mar-25 20:55N 56°18' W 152°30'6 6.5 080 / 6 1.9 5.2
2017-Mar-25 20:00N 56°24' W 152°30'672.0 090 / 71001.6 1.5-5.6 5.2
2017-Mar-25 19:55N 56°18' W 152°30'3 3.6 070 / 8 1.6 5.2
2017-Mar-25 19:00N 56°18' W 152°24'0 0.0 090 / 91001.5 1.1-5.3 5.1
2017-Mar-25 18:56N 56°18' W 152°24'1212.5 060 / 7 1.3 5.1
2017-Mar-25 18:00N 56°24' W 152°42'0 0.0 030 / 51001.4 1.4-5.6 4.1
2017-Mar-25 17:57N 56°24' W 152°42'7 7.2 040 / 5 1.1 4.2
2017-Mar-25 17:00N 56°18' W 152°48'7205.9 050 / 81001.2 1.2-4.8 5.0
2017-Mar-25 16:58N 56°12' W 152°42'1515.1 070 / 7 1.2 4.8
2017-Mar-25 16:00N 56°18' W 153°06'0 0.0 020 / 81001.5 1.0-6.1 3.7
2017-Mar-25 15:58N 56°18' W 153°06'0 0.0 010 / 8 1.0 3.7
2017-Mar-25 15:00N 56°18' W 153°06'3199.7 050 / 71001.9 1.1-5.8 4.1
2017-Mar-25 14:59N 56°18' W 153°00'3 3.4 050 / 6 1.1 4.1
2017-Mar-25 14:00N 56°18' W 152°54'7 6.7 050 / 71002.3 1.1-5.8 4.1
2017-Mar-25 13:00N 56°18' W 153°06'3 9.5 120 / 51002.6 1.1-5.9 3.6
2017-Mar-25 12:39N 56°18' W 153°12'6 9.2 080 / 4 1.2 4.2
2017-Mar-25 12:00N 56°12' W 153°12'618.0 110 / 51002.7 1.4-5.0 4.7
2017-Mar-25 11:40N 56°06' W 153°12'1217.5 090 / 6 1.6 4.2
2017-Mar-25 11:00N 56°12' W 153°30'310.5 090 / 41003.0 1.6-4.2 4.4
2017-Mar-25 10:41N 56°12' W 153°36'710.1 080 / 5 1.6 4.5
2017-Mar-25 10:00N 56°06' W 153°30'928.4 080 / 91003.4 1.7-3.9 4.1
2017-Mar-25 09:41N 56°00' W 153°18'3 4.9 140 / 5 1.8 4.3
2017-Mar-25 09:00N 56°00' W 153°24'311.2 150 / 51003.8 1.8-4.1 4.7
2017-Mar-25 08:42N 56°00' W 153°30'912.9 180 / 8 2.0 4.3
2017-Mar-25 08:00N 56°06' W 153°42'621.2 110 / 51004.2 1.8-4.7 4.4
2017-Mar-25 07:43N 56°00' W 153°42'912.6 090 / 6 1.8 5.0
2017-Mar-25 07:00N 55°54' W 153°30'0 0.0 080 / 61004.8 1.9-4.2 5.3
2017-Mar-25 06:44N 55°54' W 153°30'1013.8 250 / 4 2.0 5.1
2017-Mar-25 06:00N 55°54' W 153°48'312.6 160 / 21005.0 2.1-3.5 5.2
2017-Mar-25 05:44N 55°54' W 153°54'0 0.0 010 / 6 2.2 5.1
2017-Mar-25 05:00N 55°54' W 153°54'0 0.0 290 / 91005.6 1.9-2.2 5.1
2017-Mar-25 04:45N 55°54' W 153°54'7 9.2 320 / 10 1.9 5.0
2017-Mar-25 04:00N 56°00' W 154°00'0 0.0 330 / 81006.0 1.8-2.5 4.5
2017-Mar-25 03:46N 56°00' W 154°00'0 0.0 330 / 7 1.7 4.5
2017-Mar-25 03:00N 56°00' W 154°00'731.7 330 / 61006.4 1.8-2.7 5.2
2017-Mar-25 02:47N 55°54' W 153°54'0 0.0 340 / 5 1.8 5.2
2017-Mar-25 02:00N 55°54' W 153°54'315.5 350 / 61006.8 1.7-2.9 5.2
2017-Mar-25 01:47N 55°54' W 153°48'3 4.3 320 / 5 1.7 5.2
2017-Mar-25 01:00N 55°54' W 153°54'0 0.0 330 / 51007.5 2.1-3.2 5.2
2017-Mar-25 00:48N 55°54' W 153°54'0 0.0 340 / 3 1.4 5.2
2017-Mar-25 00:00N 55°54' W 153°54'3 3.4 350 / 61007.9 1.3-3.7 5.1
2017-Mar-24 23:00N 55°54' W 153°48'636.0 340 / 61008.4 0.9-4.9 5.1
2017-Mar-24 22:50N 55°48' W 153°48'1214.4 330 / 9 1.0 5.1
2017-Mar-24 22:00N 56°00' W 153°48'636.0 310 / 71009.0 1.2-4.8 4.7
2017-Mar-24 21:50N 55°54' W 153°48'1214.1 310 / 7 0.6 5.0
2017-Mar-24 21:00N 55°48' W 154°06'0 0.0 320 / 111009.4 0.1-5.8 4.0
2017-Mar-24 20:52N 55°48' W 154°06'7 7.9 320 / 12 0.2 4.4
2017-Mar-24 20:00N 55°54' W 154°12'645.0 340 / 101009.8 -0.4-7.3 4.1
2017-Mar-24 19:52N 55°48' W 154°12'0 0.0 320 / 11 -0.3 4.1
2017-Mar-24 19:00N 55°48' W 154°12'328.9 320 / 171009.5 -0.4-7.4 4.1
2017-Mar-24 18:53N 55°48' W 154°06'7 7.6 330 / 15 -0.3 4.1
2017-Mar-24 18:00N 55°48' W 154°18'333.7 320 / 141010.3 -0.2-6.5 4.5
2017-Mar-24 17:54N 55°48' W 154°12'1213.3 330 / 18 -0.0 4.3
2017-Mar-24 17:00N 56°00' W 154°12'782.5 320 / 191010.0 -0.5-7.4 4.3
2017-Mar-24 16:55N 55°54' W 154°06'7 7.5 320 / 18 -0.6 4.3
2017-Mar-24 16:00N 56°00' W 154°00'0 0.0 330 / 211010.4 -0.5-6.5 4.3
2017-Mar-24 15:55N 56°00' W 154°00'1011.0 310 / 18 -0.3 4.4
2017-Mar-24 15:00N 56°00' W 154°18'690.0 330 / 201010.8 -0.6-6.1 4.4
2017-Mar-24 14:56N 55°54' W 154°18'1213.4 330 / 20 -0.5 4.1
2017-Mar-24 14:00N 56°06' W 154°24'6120.0 330 / 221011.1 -0.6-6.2 4.1
2017-Mar-24 13:57N 56°00' W 154°24'7 7.1 330 / 22 -0.6 4.1
2017-Mar-24 13:00N 56°00' W 154°36'0 0.0 360 / 211011.4 -0.6-6.6 4.2
2017-Mar-24 12:58N 56°00' W 154°36'1212.1 360 / 19 -0.4 4.5
2017-Mar-24 12:00N 55°54' W 154°18'3201.8 330 / 241009.010.8 1.0-5.7-4.6
2017-Mar-24 11:59N 55°54' W 154°24'1515.0 330 / 21 -0.3 4.6
2017-Mar-24 11:00N 56°00' W 154°48'7412.6 340 / 231012.2 -0.5-6.2 4.5
2017-Mar-24 10:59N 55°54' W 154°42'3 3.4 340 / 22 -0.4 4.5
2017-Mar-24 10:00N 55°54' W 154°48'6 6.0 350 / 181012.2 -0.3-5.9 4.5
2017-Mar-24 09:00N 55°48' W 154°48'618.0 330 / 191012.4 -0.1-6.3 4.5
2017-Mar-24 08:40N 55°42' W 154°48'913.6 340 / 22 0.2 4.3
2017-Mar-24 08:00N 55°48' W 155°00'720.7 340 / 181012.4 0.1-5.7 4.5
2017-Mar-24 07:40N 55°42' W 155°06'3 5.1 350 / 18 0.2 4.5
2017-Mar-24 07:00N 55°42' W 155°00'721.8 1011.9 0.7-5.9 4.5
2017-Mar-24 06:41N 55°36' W 154°54'1014.9 350 / 21 0.8 4.6
2017-Mar-24 06:00N 55°36' W 155°12'0 0.0 350 / 171012.1 1.0-5.9 4.5
2017-Mar-24 05:42N 55°36' W 155°12'1014.5 350 / 16 1.2 4.6
2017-Mar-24 05:00N 55°36' W 155°30'724.3 320 / 141012.5 1.4-6.3 4.6
2017-Mar-24 04:43N 55°30' W 155°36'1014.2 330 / 14 1.5 4.6
2017-Mar-24 04:00N 55°30' W 155°54'621.2 320 / 151012.7 1.5-5.4 4.5
2017-Mar-24 03:43N 55°24' W 155°54'1014.3 310 / 18 1.4 4.5
2017-Mar-24 03:00N 55°24' W 156°12'312.8 330 / 171013.2 1.6-6.8 3.1
2017-Mar-24 02:44N 55°24' W 156°18'912.4 320 / 18 1.4 3.2
2017-Mar-24 02:00N 55°30' W 156°30'0 0.0 320 / 171013.4 1.4-8.2 3.3
2017-Mar-24 01:45N 55°30' W 156°30'0 0.0 320 / 16 0.8 3.3
2017-Mar-24 01:00N 55°30' W 156°30'0 0.0 330 / 171013.3 0.3-9.5 3.3
2017-Mar-24 00:46N 55°30' W 156°30'0 0.0 330 / 18 0.4 3.3
2017-Mar-24 00:00N 55°30' W 156°30'7 6.8 330 / 161013.5 0.7-7.5 3.5
2017-Mar-23 23:00N 55°30' W 156°42'0 0.0 330 / 201013.4 0.9-7.9 3.3
2017-Mar-23 22:47N 55°30' W 156°42'1417.6 330 / 19 1.2 3.3
2017-Mar-23 22:00N 55°42' W 156°54'316.9 330 / 181013.3 0.3-9.0 3.0
2017-Mar-23 21:48N 55°42' W 156°48'1518.5 340 / 21 -0.3 3.3
2017-Mar-23 21:00N 55°36' W 156°24'318.5 350 / 191010.610.8 1.5-8.9-3.2
2017-Mar-23 20:49N 55°36' W 156°30'7 8.3 350 / 20 0.2 3.2
2017-Mar-23 20:00N 55°36' W 156°18'737.6 350 / 171011.9 -0.0-7.1 3.1
2017-Mar-23 19:49N 55°30' W 156°12'1012.5 350 / 15 0.1 3.2
2017-Mar-23 19:00N 55°30' W 155°54'320.4 350 / 211011.1 0.6-6.5 4.5
2017-Mar-23 18:50N 55°30' W 155°48'6 7.2 350 / 22 0.8 4.5
2017-Mar-23 18:00N 55°36' W 155°48'745.2 340 / 241009.110.8 1.1-6.6-3.1
2017-Mar-23 17:51N 55°36' W 156°00'1213.9 330 / 23 0.1 3.1
2017-Mar-23 17:00N 55°42' W 156°18'0 0.0 330 / 211010.8 -0.8-8.3 3.2
2017-Mar-23 16:52N 55°42' W 156°18'910.4 340 / 21 -0.6 3.3
2017-Mar-23 16:00N 55°48' W 156°30'645.0 340 / 211010.9 -0.9-7.2 3.2
2017-Mar-23 15:52N 55°42' W 156°30'6 6.9 330 / 23 -0.7 3.3
2017-Mar-23 15:00N 55°48' W 156°30'651.4 330 / 211010.7 -1.0-8.5 3.4
2017-Mar-23 14:53N 55°42' W 156°30'3 3.8 340 / 21 -1.1 3.4
2017-Mar-23 14:00N 55°42' W 156°24'333.8 340 / 201010.1 -1.4-8.1 3.4
2017-Mar-23 13:54N 55°42' W 156°18'1213.1 330 / 19 -1.4 3.3
2017-Mar-23 13:00N 55°48' W 156°36'0 0.0 330 / 251010.1 -1.3-8.1 3.4
2017-Mar-23 12:55N 55°48' W 156°36'1516.1 340 / 24 -1.1 3.4
2017-Mar-23 12:00N 55°54' W 157°00'672.0 330 / 261010.3 -1.7-8.2 3.1
2017-Mar-23 11:55N 55°48' W 157°00'1212.8 340 / 28 -1.7 3.1
2017-Mar-23 11:00N 55°54' W 156°42'350.5 340 / 241009.2 -1.8-7.8 3.2
2017-Mar-23 10:56N 55°54' W 156°36'7 7.2 350 / 23 -1.6 3.3
2017-Mar-23 10:00N 55°54' W 156°24'7137.6 350 / 181009.2 -1.8-7.9 3.2
2017-Mar-23 09:57N 55°48' W 156°18'1010.7 350 / 20 -1.9 3.3
2017-Mar-23 09:00N 55°48' W 156°00'0 0.0 340 / 181008.5 -0.8-8.1 4.1
2017-Mar-23 08:58N 55°48' W 156°00'7 7.1 350 / 19 -0.7 4.1
2017-Mar-23 08:00N 55°54' W 156°06'0 0.0 340 / 151008.2 -0.9-8.5 3.3
2017-Mar-23 07:58N 55°54' W 156°06'1515.2 340 / 17 -0.9 3.3
2017-Mar-23 07:00N 56°00' W 156°30'0 0.0 320 / 201008.8 -2.3-8.1 3.3
2017-Mar-23 06:59N 56°00' W 156°30'1212.7 320 / 21 -2.3 3.3
2017-Mar-23 06:00N 56°12' W 156°36'1211.7 330 / 231008.1 -2.6-8.7 3.5
2017-Mar-23 05:00N 56°06' W 156°18'925.7 340 / 191007.8 -1.2-9.3 3.3
2017-Mar-23 04:39N 56°00' W 156°06'710.6 350 / 12 -0.3 3.1
2017-Mar-23 04:00N 56°06' W 156°00'310.0 030 / 91007.5 -0.9-5.9 3.3
2017-Mar-23 03:40N 56°06' W 155°54'913.5 030 / 10 -0.9 3.3
2017-Mar-23 03:00N 56°12' W 156°06'310.5 320 / 101007.2 -0.2-9.5 3.4
2017-Mar-23 02:41N 56°12' W 156°12'913.1 330 / 17 0.4 3.4
2017-Mar-23 02:00N 56°18' W 156°24'722.9 320 / 161007.4 -0.7-7.6 3.5
2017-Mar-23 01:42N 56°12' W 156°18'7 9.8 310 / 17 -0.8 3.6
2017-Mar-23 01:00N 56°18' W 156°24'722.9 320 / 161007.4 -1.0-8.1 3.5
2017-Mar-23 00:42N 56°12' W 156°18'0 0.0 330 / 13 -0.8 3.6
2017-Mar-23 00:00N 56°12' W 156°18'1211.7 330 / 151007.4 -0.1-8.6 3.2
2017-Mar-22 23:00N 56°18' W 156°36'312.5 330 / 171007.9 -0.7-8.5 3.5
2017-Mar-22 22:44N 56°18' W 156°42'1216.4 340 / 18 -1.7 3.3
2017-Mar-22 22:00N 56°30' W 156°42'935.8 330 / 181007.6 -1.8-9.1 3.3
2017-Mar-22 21:45N 56°24' W 156°30'7 8.9 340 / 16 -1.2 3.4
2017-Mar-22 21:00N 56°24' W 156°18'727.4 340 / 91007.7 -0.9-9.6 3.5
2017-Mar-22 20:45N 56°18' W 156°12'7 8.9 320 / 9 -0.8 3.4
2017-Mar-22 20:00N 56°18' W 156°00'728.5 360 / 121007.4 -0.2-7.6 3.3
2017-Mar-22 19:46N 56°18' W 155°48'7 8.9 360 / 17 -0.3 3.1
2017-Mar-22 19:00N 56°24' W 155°54'0 0.0 360 / 201007.3 -0.1-7.9 3.5
2017-Mar-22 18:47N 56°24' W 155°54'1214.8 010 / 18 -0.1 3.5
2017-Mar-22 18:00N 56°30' W 156°12'316.6 330 / 71007.9 0.8-8.7 3.4
2017-Mar-22 17:48N 56°30' W 156°06'0 0.0 330 / 6 -0.2 3.4
2017-Mar-22 17:00N 56°30' W 156°06'630.0 330 / 71008.0 -0.3-8.7 3.4
2017-Mar-22 16:48N 56°24' W 156°06'0 0.0 320 / 9 -0.3 3.4
2017-Mar-22 16:00N 56°24' W 156°06'318.1 360 / 151007.9 -0.1-9.4 3.4
2017-Mar-22 15:49N 56°24' W 156°00'911.0 350 / 18 -0.1 3.4
2017-Mar-22 15:00N 56°30' W 156°12'319.9 320 / 131006.910.8 -0.0-8.1-3.5
2017-Mar-22 14:50N 56°30' W 156°18'1213.9 320 / 13 -1.1 3.5
2017-Mar-22 14:00N 56°36' W 156°36'322.0 310 / 171009.1 -1.8-9.2 3.1
2017-Mar-22 13:51N 56°36' W 156°42'6 7.1 300 / 18 -1.9 3.3
2017-Mar-22 13:00N 56°42' W 156°42'324.7 310 / 181009.3 -1.9-9.9 3.3
2017-Mar-22 12:52N 56°42' W 156°36'7 7.6 290 / 14 -1.7 3.3
2017-Mar-22 12:00N 56°42' W 156°24'751.4 360 / 121009.510.8 -0.8-11.0 3.5
2017-Mar-22 11:52N 56°36' W 156°18'3 3.8 360 / 13 -0.8 3.4
2017-Mar-22 11:00N 56°36' W 156°12'328.3 350 / 121009.8 -0.7-9.0 3.3
2017-Mar-22 10:53N 56°36' W 156°06'0 0.0 340 / 13 -0.8 3.3
2017-Mar-22 10:00N 56°36' W 156°06'0 0.0 360 / 151010.2 -0.9-9.9 3.3
2017-Mar-22 09:54N 56°36' W 156°06'3 3.7 010 / 16 -1.0 3.3
2017-Mar-22 09:00N 56°36' W 156°12'0 0.0 330 / 121010.4 -1.2-8.6 3.3
2017-Mar-22 08:55N 56°36' W 156°12'1010.8 330 / 14 -1.4 3.3
2017-Mar-22 08:00N 56°36' W 155°54'7102.8 1010.1 -2.1-7.7 3.5
2017-Mar-22 07:56N 56°30' W 155°48'1212.4 360 / 24 -2.2 3.6
2017-Mar-22 07:00N 56°36' W 155°30'0 0.0 360 / 251010.5 -2.3-7.0 3.4
2017-Mar-22 06:56N 56°36' W 155°30'1212.4 360 / 25 -2.2 3.3
2017-Mar-22 06:00N 56°42' W 155°48'7136.9 350 / 261010.7 -2.6-7.5 3.4
2017-Mar-22 05:57N 56°36' W 155°42'1212.2 350 / 27 -2.8 3.4
2017-Mar-22 05:00N 56°42' W 156°00'0 0.0 010 / 241011.3 -3.4-9.4 3.0
2017-Mar-22 04:58N 56°42' W 156°00'0 0.0 020 / 23 -3.0 3.0
2017-Mar-22 04:00N 56°42' W 156°00'7410.8 010 / 241011.4 -3.2-9.5 3.4
2017-Mar-22 03:59N 56°36' W 155°54'7 7.0 010 / 23 -3.1 3.4
2017-Mar-22 03:00N 56°42' W 156°00'0 0.0 010 / 241011.3 -1.7-8.6 3.1
2017-Mar-22 02:59N 56°42' W 156°00'1414.7 010 / 26 -1.6 3.3
2017-Mar-22 02:00N 56°48' W 156°24'7 6.8 350 / 141012.4 -0.8-10.1 3.5
2017-Mar-22 01:00N 56°54' W 156°18'925.4 310 / 41012.6 -1.2-11.2 3.2
2017-Mar-22 00:39N 56°48' W 156°06'710.1 010 / 26 -2.7 3.2
2017-Mar-22 00:00N 56°48' W 155°54'10 9.9 1012.1 -3.6-9.5 3.1
2017-Mar-21 23:00N 56°48' W 155°36'721.6 350 / 271012.5 -3.9-8.8 3.4
2017-Mar-21 22:41N 56°42' W 155°30'6 8.8 350 / 11 -3.8 3.1
2017-Mar-21 22:00N 56°48' W 155°30'620.0 340 / 241012.8 -4.0-8.2 3.1
2017-Mar-21 21:42N 56°42' W 155°30'0 0.0 350 / 26 -4.1 3.1
2017-Mar-21 21:00N 56°42' W 155°30'0 0.0 340 / 141012.9 -3.9-8.2 3.3
2017-Mar-21 20:42N 56°42' W 155°30'3 4.7 330 / 28 -3.7 3.1
2017-Mar-21 20:00N 56°42' W 155°24'723.3 350 / 291012.2 -4.1-7.9 3.3
2017-Mar-21 19:43N 56°42' W 155°12'6 8.4 330 / 27 -3.5 3.5
2017-Mar-21 19:00N 56°48' W 155°12'312.3 340 / 271012.2 -3.2-7.1 3.4
2017-Mar-21 18:44N 56°48' W 155°18'1215.7 330 / 28 -4.0 3.3
2017-Mar-21 18:00N 56°54' W 155°36'0 0.0 340 / 281012.8 -4.5-9.1 3.4
2017-Mar-21 17:45N 56°54' W 155°36'7 8.7 340 / 29 -4.6 3.5
2017-Mar-21 17:00N 56°54' W 155°48'0 0.0 340 / 311012.9 -5.4-11.1 3.1
2017-Mar-21 16:45N 56°54' W 155°48'911.8 350 / 31 -4.9 3.1
2017-Mar-21 16:00N 57°00' W 156°00'0 0.0 340 / 281013.0 -3.7-10.9 3.0
2017-Mar-21 15:46N 57°00' W 156°00'7 8.9 340 / 29 -3.7 3.0
2017-Mar-21 15:00N 57°06' W 155°54'315.0 350 / 371010.010.8 -4.0-11.8-3.1
2017-Mar-21 14:47N 57°06' W 156°00'3 4.2 350 / 37 -5.7 3.0
2017-Mar-21 14:00N 57°06' W 155°54'731.5 340 / 371012.6 -5.9-11.4 3.3
2017-Mar-21 13:47N 57°00' W 155°48'7 8.3 340 / 32 -5.6 3.2
2017-Mar-21 13:00N 57°00' W 155°36'315.1 330 / 301013.0 -5.0-11.1 3.4
2017-Mar-21 12:47N 57°00' W 155°30'3 4.2 330 / 29 -5.3 3.3
2017-Mar-21 12:00N 57°00' W 155°24'0 0.0 330 / 281013.5 -5.1-9.6 3.3
2017-Mar-21 11:48N 57°00' W 155°24'7 8.2 330 / 27 -5.3 3.3
2017-Mar-21 11:00N 57°00' W 155°12'737.3 330 / 261013.1 -4.5-8.5 3.3
2017-Mar-21 10:49N 56°54' W 155°06'7 8.4 330 / 25 -4.3 3.2
2017-Mar-21 10:00N 57°00' W 155°00'319.6 320 / 251013.2 -3.5-8.3 3.6
2017-Mar-21 09:50N 57°00' W 154°54'1417.2 310 / 19 -3.4 3.5
2017-Mar-21 09:00N 57°06' W 155°18'0 0.0 310 / 221014.0 -4.4-8.7 3.3
2017-Mar-21 08:51N 57°06' W 155°18'1113.5 310 / 25 -4.5 3.1
2017-Mar-21 08:00N 57°12' W 155°36'321.7 310 / 311014.1 -5.5-10.0 3.0
2017-Mar-21 07:51N 57°12' W 155°42'1113.5 310 / 31 -5.5 3.1
2017-Mar-21 07:00N 57°18' W 156°00'645.0 310 / 341014.2 -5.8-11.0 3.0
2017-Mar-21 06:52N 57°12' W 156°00'910.2 310 / 35 -6.4 2.9
2017-Mar-21 06:00N 57°18' W 155°48'327.8 300 / 281013.9 -5.4-10.9 3.2
2017-Mar-21 05:53N 57°18' W 155°42'6 7.3 320 / 26 -4.7 3.1
2017-Mar-21 05:00N 57°18' W 155°30'768.2 320 / 291013.8 -4.5-11.8 3.1
2017-Mar-21 04:54N 57°12' W 155°24'7 7.6 320 / 27 -4.2 3.5
2017-Mar-21 04:00N 57°18' W 155°30'768.2 310 / 261014.0 -4.1-10.5 3.3
2017-Mar-21 03:54N 57°12' W 155°24'6 6.7 320 / 27 -4.3 3.4
2017-Mar-21 03:00N 57°18' W 155°24'672.0 320 / 251014.1 -3.7-10.6 3.3
2017-Mar-21 02:55N 57°12' W 155°24'3 3.5 320 / 14 -2.7 3.5
2017-Mar-21 02:00N 57°12' W 155°18'348.8 340 / 181014.2 -2.9-9.1 3.5
2017-Mar-21 01:56N 57°12' W 155°12'1010.4 340 / 13 -2.9 3.5
2017-Mar-21 01:00N 57°12' W 154°54'6120.0 350 / 201014.4 -3.3-7.8 3.3
2017-Mar-21 00:57N 57°06' W 154°54'1213.1 340 / 20 -2.6 3.3
2017-Mar-21 00:00N 57°18' W 155°00'1414.3 320 / 211015.0 -3.2-8.4 3.5
2017-Mar-20 23:00N 57°24' W 155°24'397.0 330 / 251015.2 -3.7-9.2 3.2
2017-Mar-20 22:58N 57°24' W 155°18'1414.7 330 / 25 -3.8 3.1
2017-Mar-20 22:00N 57°30' W 155°42'6360.0 320 / 211015.0 -4.6-12.6 3.3
2017-Mar-20 21:59N 57°24' W 155°42'1515.7 320 / 17 -4.2 3.2
2017-Mar-20 21:00N 57°36' W 155°24'718.6 350 / 271014.6 -6.7-11.5 3.0
2017-Mar-20 20:38N 57°30' W 155°18'913.9 340 / 28 -7.1 3.3
2017-Mar-20 20:00N 57°24' W 155°06'3 9.2 330 / 221014.6 -6.3-9.5 3.4
2017-Mar-20 19:39N 57°24' W 155°00'0 0.0 340 / 19 -6.2 3.4
2017-Mar-20 19:00N 57°24' W 155°00'3 9.7 320 / 161014.9 -5.6-8.8 3.4
2017-Mar-20 18:40N 57°24' W 154°54'0 0.0 320 / 16 -5.4 3.4
2017-Mar-20 18:00N 57°24' W 154°54'618.9 330 / 171014.7 -5.6-9.2 3.3
2017-Mar-20 17:41N 57°18' W 154°54'6 8.8 330 / 19 -5.0 3.3
2017-Mar-20 17:00N 57°24' W 154°54'721.5 340 / 161014.3 -5.8-9.6 3.3
2017-Mar-20 16:41N 57°18' W 154°48'1217.6 330 / 18 -5.4 3.4
2017-Mar-20 16:00N 57°30' W 154°48'310.7 280 / 101014.3 -4.8-8.7 3.5
2017-Mar-20 15:42N 57°30' W 154°54'912.6 300 / 10 -5.7 3.5
2017-Mar-20 15:00N 57°36' W 155°06'311.3 310 / 171014.3 -7.6-11.6 3.5
2017-Mar-20 14:43N 57°36' W 155°12'0 0.0 310 / 16 -8.6 3.3
2017-Mar-20 14:00N 57°36' W 155°12'0 0.0 300 / 311013.8 -8.6-12.7 3.2
2017-Mar-20 13:44N 57°36' W 155°12'3 4.4 320 / 31 -8.2 3.3
2017-Mar-20 13:00N 57°36' W 155°06'0 0.0 320 / 291013.6 -8.3-12.1 3.6
2017-Mar-20 12:45N 57°36' W 155°06'3 4.3 320 / 28 -8.3 3.6
2017-Mar-20 12:00N 57°36' W 155°00'312.9 320 / 301011.010.8 -5.0-10.9 3.6
2017-Mar-20 11:45N 57°36' W 155°06'0 0.0 320 / 26 -7.1 3.4
2017-Mar-20 11:00N 57°36' W 155°06'729.2 310 / 251013.6 -7.6-11.3 3.6
2017-Mar-20 10:46N 57°30' W 155°00'6 7.8 310 / 24 -7.0 3.6
2017-Mar-20 10:00N 57°36' W 155°00'627.7 310 / 221013.5 -6.0-10.5 3.6
2017-Mar-20 09:47N 57°30' W 155°00'1114.5 310 / 26 -6.9 3.6
2017-Mar-20 09:00N 57°36' W 155°18'0 0.0 310 / 211013.5 -8.4-13.6 2.1
2017-Mar-20 08:48N 57°36' W 155°18'911.0 310 / 35 -9.1 2.5
2017-Mar-20 08:00N 57°42' W 155°06'316.0 320 / 151013.2 -6.1-11.9 2.5
2017-Mar-20 07:48N 57°42' W 155°00'911.0 290 / 13 -5.6 2.7
2017-Mar-20 07:00N 57°36' W 154°48'317.5 310 / 61013.1 -5.4-11.5 3.5
2017-Mar-20 06:49N 57°36' W 154°42'6 7.9 290 / 7 -5.2 3.5
2017-Mar-20 06:00N 57°36' W 154°30'319.3 230 / 71012.8 -4.5-9.5 3.6
2017-Mar-20 05:50N 57°36' W 154°24'1113.6 210 / 9 -4.7 3.1
2017-Mar-20 05:00N 57°42' W 154°42'0 0.0 280 / 121012.3 -4.8-11.1 3.1
2017-Mar-20 04:51N 57°42' W 154°42'910.3 280 / 13 -5.0 2.4
2017-Mar-20 04:00N 57°48' W 154°54'0 0.0 290 / 131011.6 -5.4-13.1 2.3
2017-Mar-20 03:52N 57°48' W 154°54'3 3.7 290 / 11 -5.2 2.5
2017-Mar-20 03:00N 57°48' W 154°48'0 0.0 290 / 121011.2 -5.1-13.9 2.2
2017-Mar-20 02:52N 57°48' W 154°48'3 3.7 280 / 14 -5.3 2.2
2017-Mar-20 02:00N 57°48' W 154°54'0 0.0 290 / 141011.0 -4.8-13.0 2.4
2017-Mar-20 01:53N 57°48' W 154°54'7 7.7 270 / 16 -4.5 2.2
2017-Mar-20 01:00N 57°54' W 154°48'331.9 290 / 111010.4 -5.0-12.0 3.0
2017-Mar-20 00:54N 57°54' W 154°42'3 3.5 290 / 12 -4.9 3.0
2017-Mar-20 00:00N 57°54' W 154°48'3 3.2 280 / 141010.3 -6.1-12.1 1.8
2017-Mar-19 23:00N 57°54' W 154°42'0 0.0 280 / 151010.0 -6.0-11.1 2.9
2017-Mar-19 22:55N 57°54' W 154°42'3 3.5 290 / 14 -6.1 3.0
2017-Mar-19 22:00N 57°54' W 154°36'690.0 290 / 111009.8 -5.1-10.3 1.9
2017-Mar-19 21:56N 57°48' W 154°36'6 6.4 290 / 16 -5.0 3.1
2017-Mar-19 21:00N 57°54' W 154°36'6120.0 310 / 91009.310.8 -4.7-10.3 1.5
2017-Mar-19 20:57N 57°48' W 154°36'1010.1 300 / 9 -4.7 1.4
2017-Mar-19 20:00N 57°48' W 154°18'7204.0 140 / 51008.8 -4.6-8.7 3.6
2017-Mar-19 19:58N 57°42' W 154°12'7 7.0 130 / 4 -4.6 3.7
2017-Mar-19 19:00N 57°48' W 154°06'0 0.0 040 / 31008.3 -4.2-10.8 2.6
2017-Mar-19 18:59N 57°48' W 154°06'0 0.0 050 / 4 -4.4 3.0
2017-Mar-19 18:00N 57°48' W 154°06'0 0.0 040 / 81007.6 -4.6-9.8 2.8
2017-Mar-19 17:59N 57°48' W 154°06'3 3.3 050 / 6 -4.5 2.7
2017-Mar-19 17:00N 57°48' W 154°12'348.0 050 / 81006.9 -4.8-10.1 2.5
2017-Mar-19 16:56N 57°48' W 154°06'0 0.0 070 / 8 -4.9 2.5
2017-Mar-19 16:00N 57°48' W 154°06'0 0.0 060 / 71006.6 -4.7-10.3 3.1
2017-Mar-19 15:57N 57°48' W 154°06'9 9.2 060 / 8 -4.8 2.7
2017-Mar-19 15:00N 57°54' W 154°18'0 0.0 040 / 101006.3 -4.9-11.5 1.5
2017-Mar-19 14:57N 57°54' W 154°18'3 3.4 050 / 13 -4.8 1.5
2017-Mar-19 14:00N 57°54' W 154°24'395.7 070 / 121005.7 -5.1-11.1 1.2
2017-Mar-19 13:58N 57°54' W 154°18'6 6.6 080 / 11 -5.0 1.2
2017-Mar-19 13:00N 57°54' W 154°30'3191.3 100 / 131005.6 -4.5-10.9 1.1
2017-Mar-19 12:59N 57°54' W 154°24'7 6.9 090 / 14 -4.5 1.1
2017-Mar-19 12:00N 58°00' W 154°30'9 8.7 090 / 101005.1 -4.3-10.1 0.7
2017-Mar-19 11:00N 58°06' W 154°18'925.0 050 / 101005.0 -5.0-9.8 1.0
2017-Mar-19 10:39N 58°00' W 154°06'913.5 080 / 13 -4.8 1.6
2017-Mar-19 10:00N 57°54' W 153°54'3 9.6 050 / 171004.9 -5.3-11.4 3.6
2017-Mar-19 09:40N 57°54' W 153°48'710.2 040 / 17 -5.3 3.5
2017-Mar-19 09:00N 58°00' W 153°42'0 0.0 010 / 231004.7 -5.4-10.3 3.5
2017-Mar-19 08:40N 58°00' W 153°42'913.1 020 / 21 -5.5 3.5
2017-Mar-19 08:00N 58°06' W 153°54'310.0 020 / 161004.3 -4.8-9.5 3.3
2017-Mar-19 07:41N 58°06' W 154°00'3 4.6 030 / 13 -4.8 0.8
2017-Mar-19 07:00N 58°06' W 154°06'310.6 040 / 61003.9 -4.6-9.9 0.8
2017-Mar-19 06:42N 58°06' W 154°00'3 4.5 060 / 10 -4.5 1.2
2017-Mar-19 06:00N 58°06' W 154°06'0 0.0 080 / 61003.7 -3.8-9.1 1.1
2017-Mar-19 05:43N 58°06' W 154°06'0 0.0 080 / 8 -3.5 1.3
2017-Mar-19 05:00N 58°06' W 154°06'311.2 060 / 71003.5 -3.6-9.0 1.3
2017-Mar-19 04:43N 58°06' W 154°00'7 9.5 070 / 10 -3.6 1.1
2017-Mar-19 04:00N 58°12' W 154°06'311.9 050 / 91003.3 -4.0-9.8 1.8
2017-Mar-19 03:44N 58°12' W 154°00'6 8.6 040 / 10 -4.0 3.3
2017-Mar-19 03:00N 58°12' W 153°48'727.1 020 / 71003.2 -3.0-8.8 3.7
2017-Mar-19 02:45N 58°06' W 153°42'6 8.0 200 / 3 -1.9 3.8
2017-Mar-19 02:00N 58°12' W 153°42'729.1 140 / 51003.4 -2.6-8.7 3.7
2017-Mar-19 01:46N 58°06' W 153°36'0 0.0 200 / 5 -3.0 3.6
2017-Mar-19 01:00N 58°06' W 153°36'627.7 240 / 71003.5 -2.5-9.7 3.7
2017-Mar-19 00:47N 58°00' W 153°36'6 7.7 230 / 7 -2.5 3.7
2017-Mar-19 00:00N 58°06' W 153°36'0 0.0 230 / 61003.8 -2.9-8.0 3.7
2017-Mar-18 23:00N 58°06' W 153°36'0 0.0 230 / 91004.0 -3.3-7.6 3.7
2017-Mar-18 22:48N 58°06' W 153°36'6 7.9 230 / 6 -3.5 3.6
2017-Mar-18 22:00N 58°06' W 153°24'317.3 280 / 51004.2 -2.8-8.2 3.5
2017-Mar-18 21:49N 58°06' W 153°18'7 8.3 290 / 4 -2.4 3.6
2017-Mar-18 21:00N 58°12' W 153°24'637.9 250 / 91002.510.8 -1.1-7.9-4.0
2017-Mar-18 20:50N 58°12' W 153°36'1518.3 260 / 6 -3.3 4.0
2017-Mar-18 20:00N 58°24' W 153°54'640.0 320 / 141004.5 -4.9-13.2 2.0
2017-Mar-18 19:51N 58°18' W 153°54'910.2 320 / 20 -5.6 2.1
2017-Mar-18 19:00N 58°24' W 153°42'321.0 290 / 171004.3 -5.2-13.5 2.7
2017-Mar-18 18:51N 58°24' W 153°36'1113.2 310 / 16 -5.1 3.3
2017-Mar-18 18:00N 58°18' W 153°18'323.6 280 / 121004.4 -4.1-13.2 4.1
2017-Mar-18 17:52N 58°18' W 153°12'0 0.0 300 / 12 -4.1 4.0
2017-Mar-18 17:00N 58°18' W 153°12'651.4 310 / 121004.7 -4.1-10.3 3.7
2017-Mar-18 16:53N 58°12' W 153°12'6 6.8 290 / 8 -4.2 3.6
2017-Mar-18 16:00N 58°18' W 153°12'767.8 300 / 101004.8 -4.1-9.7 3.6
2017-Mar-18 15:54N 58°12' W 153°06'7 7.5 310 / 7 -3.7 3.6
2017-Mar-18 15:00N 58°18' W 153°12'767.8 320 / 121005.0 -4.2-9.4 3.6
2017-Mar-18 14:54N 58°12' W 153°06'1213.3 320 / 15 -4.2 3.7
2017-Mar-18 14:00N 58°24' W 153°06'0 0.0 300 / 111005.5 -4.6-11.6 4.0
2017-Mar-18 13:55N 58°24' W 153°06'1112.2 300 / 13 -4.7 3.7
2017-Mar-18 13:00N 58°30' W 153°24'347.0 300 / 191005.2 -5.4-14.7 3.0
2017-Mar-18 12:56N 58°30' W 153°18'1313.4 300 / 18 -5.3 2.5
2017-Mar-18 12:00N 58°30' W 152°54'362.7 290 / 191004.010.8 -3.6-12.7-4.0
2017-Mar-18 11:57N 58°30' W 153°00'9 9.1 280 / 16 -3.5 3.9
2017-Mar-18 11:00N 58°36' W 152°48'7203.0 330 / 151006.2 -3.7-8.2 4.3
2017-Mar-18 10:58N 58°30' W 152°42'1414.0 340 / 16 -3.9 4.3
2017-Mar-18 10:00N 58°42' W 152°30'0 0.0 320 / 351004.9 -5.8-9.2 4.5
2017-Mar-18 09:59N 58°42' W 152°30'9 9.5 320 / 36 -6.2 4.5
2017-Mar-18 09:00N 58°42' W 152°12'0 0.0 330 / 291005.4 -5.0-8.9 4.4
2017-Mar-18 08:59N 58°42' W 152°12'3 3.2 320 / 26 -4.9 4.5
2017-Mar-18 08:00N 58°42' W 152°06'719.3 320 / 301005.5 -5.2-9.0 4.8
2017-Mar-18 07:39N 58°36' W 152°00'3 4.8 320 / 29 -5.2 5.0
2017-Mar-18 07:00N 58°36' W 151°54'3 9.4 310 / 261005.8 -4.2-7.6 5.0
2017-Mar-18 06:40N 58°36' W 151°48'6 9.0 310 / 26 -4.5 5.1
2017-Mar-18 06:00N 58°30' W 151°48'618.0 300 / 331005.8 -4.6-8.2 4.8
2017-Mar-18 05:40N 58°24' W 151°48'710.2 310 / 30 -3.9 4.8
2017-Mar-18 05:00N 58°18' W 151°54'2512.4 310 / 301006.8 -5.1-9.8 3.3
2017-Mar-18 03:00N 57°54' W 152°06'621.2 340 / 171007.7 -3.2-10.6 3.7
2017-Mar-18 02:43N 57°48' W 152°06'6 8.9 320 / 19 -2.5 3.5
2017-Mar-18 02:00N 57°48' W 152°18'622.5 330 / 141008.2 -2.0-11.4 3.1
2017-Mar-18 01:44N 57°42' W 152°18'7 9.3 320 / 17 -0.6 3.1
2017-Mar-18 01:00N 57°48' W 152°24'622.5 220 / 91008.5 -1.5-12.1 2.3
2017-Mar-18 00:44N 57°42' W 152°24'6 8.2 240 / 10 -1.6 2.3
2017-Mar-18 00:00N 57°48' W 152°24'0 0.0 240 / 81008.8 -1.4-12.2 2.3
2017-Mar-17 23:00N 57°48' W 152°24'625.7 230 / 41009.3 -1.4-11.1 2.3
2017-Mar-17 22:46N 57°42' W 152°24'6 7.8 200 / 4 -1.7 2.3
2017-Mar-17 22:00N 57°48' W 152°24'   190 / 61009.8 -1.6-11.7 2.3
Track history (hours):
 
Tides and Currents Weather Stations Pressure Air Temp Water Temp Dewpoint Dewpoint Depression Visibility Wind Speed Wind Dir Waves Ship Positions

Oceanographic research ship Oscar Dyson (USA)

Ship's website: http://www.moc.noaa.gov/od/

Detailed information on ship capabilities available from University of Delaware's Ocean Information Center and ARCUS's ALIAS (Arctic Logistics Information and Support) project.

Last reported at 2017-Mar-27 22:00 UTC. Time now 2017-Mar-30 12:41 UTC.
Position N 57°42' W 152°24'.

Type: Ship. MMSI: 369959000.

Wind from 020 at 10 knots

Barometer 995.1 mb
Air temperature 1.7 ° C
Dewpoint -3.0 ° C
Water temperature 3.3 ° C

Date/timePositionNaut miles runAvg speedWind from/ knotsBaromVisibWave heightAir tempDewpointWater temp
2017-Mar-27 22:00N 57°42' W 152°24'3 9.2 020 / 10995.1 1.7-3.0 3.3
2017-Mar-27 21:39N 57°42' W 152°18'6 9.2 360 / 11 2.0 3.3
2017-Mar-27 21:00N 57°48' W 152°18'3 9.6 330 / 11995.4 1.4-1.0 3.3
2017-Mar-27 20:40N 57°48' W 152°12'1218.0 320 / 10 1.1 3.5
2017-Mar-27 20:00N 58°00' W 152°12'0 0.0 360 / 9995.6 1.4 0.1 3.5
2017-Mar-27 19:41N 58°00' W 152°12'1217.6 360 / 10 0.8 4.3
2017-Mar-27 19:00N 58°12' W 152°12'618.9 330 / 8996.0 -0.4-1.3 3.8
2017-Mar-27 18:41N 58°06' W 152°12'6 8.8 350 / 9 -0.2 3.8
2017-Mar-27 18:00N 58°12' W 152°12'620.0 340 / 8996.0 -0.6-1.4 3.8
2017-Mar-27 17:42N 58°06' W 152°12'6 8.6 330 / 9 -0.7 3.8
2017-Mar-27 17:00N 58°12' W 152°12'621.2 340 / 7996.2 -0.9-1.9 3.8
2017-Mar-27 16:43N 58°06' W 152°12'6 8.4 330 / 4 -1.0 3.8
2017-Mar-27 16:00N 58°12' W 152°12'0 0.0 996.3 -0.8-2.1 3.8
2017-Mar-27 14:00N 58°12' W 152°12'624.0 350 / 7996.8 0.4-1.7 3.8
2017-Mar-27 13:45N 58°06' W 152°12'6 8.0 350 / 6 0.1 3.8
2017-Mar-27 13:00N 58°12' W 152°12'625.7 360 / 8997.1 -0.2-2.3 4.0
2017-Mar-27 12:46N 58°06' W 152°12'6 7.8 360 / 9 -0.3 4.0
2017-Mar-27 12:00N 58°12' W 152°12'627.7 340 / 6997.7 -1.0-3.1 4.0
2017-Mar-27 11:47N 58°06' W 152°12'6 7.7 350 / 11 -1.3 4.0
2017-Mar-27 11:00N 58°12' W 152°12'630.0 350 / 5998.2 -0.7-2.9 4.1
2017-Mar-27 10:48N 58°06' W 152°12'6 7.5 340 / 4 -0.5 4.1
2017-Mar-27 10:00N 58°12' W 152°12'630.0 010 / 1998.7 -0.5-2.6 4.1
2017-Mar-27 09:48N 58°06' W 152°12'6 7.5 040 / 2 -0.6 4.2
2017-Mar-27 09:00N 58°12' W 152°12'632.7 999.0 -0.3-2.5 4.1
2017-Mar-27 08:49N 58°06' W 152°12'6 7.3 330 / 6 -0.5 4.1
2017-Mar-27 08:00N 58°12' W 152°12'636.0 040 / 4999.2 -0.0-2.5 4.1
2017-Mar-27 07:50N 58°06' W 152°12'6 7.2 020 / 4 0.1 4.1
2017-Mar-27 07:00N 58°12' W 152°12'640.0 060 / 5999.5 -0.0-2.4 3.8
2017-Mar-27 06:51N 58°06' W 152°12'6 7.1 060 / 5 -0.1 3.9
2017-Mar-27 06:00N 58°12' W 152°12'640.0 020 / 3999.9 -0.5-2.9 4.0
2017-Mar-27 05:51N 58°06' W 152°12'7 8.0 020 / 3 -0.7 4.0
2017-Mar-27 05:00N 58°12' W 152°18'750.9 020 / 61000.3 0.6-2.2 3.3
2017-Mar-27 04:52N 58°06' W 152°12'0 0.0 030 / 3 0.8 3.3
2017-Mar-27 04:00N 58°06' W 152°12'651.4 290 / 31000.7 0.3-1.2 4.0
2017-Mar-27 03:53N 58°00' W 152°12'3 3.6 300 / 7 0.2 4.0
2017-Mar-27 03:00N 58°00' W 152°18'0 0.0 300 / 71000.9 0.2-1.5 3.4
2017-Mar-27 02:54N 58°00' W 152°18'0 0.0 310 / 6 0.2 3.4
2017-Mar-27 02:00N 58°00' W 152°18'660.0 340 / 81001.0 -0.5-2.1 3.4
2017-Mar-27 01:54N 57°54' W 152°18'7 7.5 340 / 10 -0.4 3.4
2017-Mar-27 01:00N 58°00' W 152°12'672.0 010 / 121001.4 0.4-1.2 3.7
2017-Mar-27 00:55N 57°54' W 152°12'7 7.4 010 / 15 0.3 3.4
2017-Mar-27 00:00N 58°00' W 152°18'7 6.8 010 / 141001.8 1.2-0.4 3.6
2017-Mar-26 23:00N 57°54' W 152°12'347.8 010 / 141002.1 0.8-0.9 3.3
2017-Mar-26 22:56N 57°54' W 152°06'3 3.4 010 / 14 0.8 3.3
2017-Mar-26 22:00N 57°54' W 152°12'363.8 1002.3 0.6-1.0 3.3
2017-Mar-26 21:57N 57°54' W 152°06'0 0.0 350 / 15 1.0 3.3
2017-Mar-26 21:00N 57°54' W 152°06'395.7 350 / 181002.3 -0.0-2.2 3.5
2017-Mar-26 20:58N 57°54' W 152°00'6 6.6 340 / 20 0.2 3.5
2017-Mar-26 20:00N 57°54' W 152°12'3191.3 290 / 171002.7 0.2-3.9 3.3
2017-Mar-26 19:59N 57°54' W 152°06'7 6.9 300 / 17 -0.0 3.3
2017-Mar-26 19:00N 58°00' W 152°12'3190.8 330 / 161003.2 0.9-4.1 3.7
2017-Mar-26 18:59N 58°00' W 152°06'0 0.0 330 / 17 0.9 3.7
2017-Mar-26 18:00N 58°00' W 152°06'1235.5 310 / 171003.0 0.3-5.1 3.4
2017-Mar-26 17:39N 57°48' W 152°00'1218.5 310 / 20 -0.1 3.5
2017-Mar-26 17:00N 58°00' W 152°00'720.4 320 / 181003.0 0.2-4.1 3.5
2017-Mar-26 16:40N 57°54' W 151°54'0 0.0 320 / 17 0.3 3.5
2017-Mar-26 16:00N 57°54' W 151°54'0 0.0 320 / 131003.2 -0.1-4.4 3.6
2017-Mar-26 15:40N 57°54' W 151°54'6 9.0 340 / 15 0.4 3.5
2017-Mar-26 15:00N 58°00' W 151°54'310.0 320 / 131001.810.8 3.0-4.8-4.0
2017-Mar-26 14:41N 58°00' W 152°00'0 0.0 330 / 15 0.2 3.8
2017-Mar-26 14:00N 58°00' W 152°00'722.6 340 / 121003.5 0.4-5.4 3.7
2017-Mar-26 13:42N 57°54' W 151°54'0 0.0 320 / 16 0.1 3.5
2017-Mar-26 13:00N 57°54' W 151°54'620.0 320 / 181003.4 0.4-4.6 3.6
2017-Mar-26 12:42N 58°00' W 151°54'7 9.7 320 / 15 0.6 3.7
2017-Mar-26 12:00N 58°06' W 151°48'621.2 340 / 131003.210.8 0.8-4.4 4.1
2017-Mar-26 11:43N 58°00' W 151°48'0 0.0 340 / 14 0.7 3.7
2017-Mar-26 11:00N 58°00' W 151°48'311.9 350 / 151003.6 0.7-4.7 3.7
2017-Mar-26 10:44N 58°00' W 151°42'6 8.2 330 / 13 0.6 4.1
2017-Mar-26 10:00N 58°06' W 151°42'624.0 330 / 151003.3 0.6-4.2 3.8
2017-Mar-26 09:45N 58°00' W 151°42'7 9.1 340 / 16 0.6 3.7
2017-Mar-26 09:00N 58°06' W 151°36'0 0.0 340 / 181003.2 0.8-4.7 3.7
2017-Mar-26 08:45N 58°06' W 151°36'0 0.0 340 / 20 0.8 4.5
2017-Mar-26 08:00N 58°06' W 151°36'729.1 330 / 171002.7 1.2-4.1 4.4
2017-Mar-26 07:46N 58°00' W 151°30'911.4 330 / 14 1.1 3.7
2017-Mar-26 07:00N 57°54' W 151°42'627.7 320 / 131003.1 0.6-5.8 3.5
2017-Mar-26 06:47N 57°48' W 151°42'7 8.7 320 / 14 0.4 3.5
2017-Mar-26 06:00N 57°42' W 151°48'630.0 320 / 161003.1 0.4-6.4 3.8
2017-Mar-26 05:48N 57°36' W 151°48'7 8.5 330 / 17 0.4 4.0
2017-Mar-26 05:00N 57°30' W 151°54'632.7 340 / 151002.9 0.4-7.3 3.5
2017-Mar-26 04:49N 57°24' W 151°54'910.8 350 / 15 0.5 3.4
2017-Mar-26 04:00N 57°18' W 152°06'632.7 360 / 131002.5 1.1-6.9 3.3
2017-Mar-26 03:49N 57°12' W 152°06'7 8.4 360 / 12 1.1 3.3
2017-Mar-26 03:00N 57°06' W 152°12'636.0 280 / 21002.6 0.5-8.0 4.3
2017-Mar-26 02:50N 57°00' W 152°12'7 8.2 280 / 2 0.5 4.3
2017-Mar-26 02:00N 56°54' W 152°18'640.0 060 / 31002.7 0.5-9.5 4.1
2017-Mar-26 01:51N 56°48' W 152°18'910.5 040 / 4 0.4 4.3
2017-Mar-26 01:00N 56°42' W 152°30'322.0 060 / 71002.4 0.6-6.6 4.1
2017-Mar-26 00:51N 56°42' W 152°24'1416.1 070 / 7 0.7 4.4
2017-Mar-26 00:00N 56°30' W 152°36'1211.6 060 / 91002.1 1.0-5.6 4.6
2017-Mar-25 23:00N 56°24' W 152°18'758.8 050 / 141002.0 1.1-5.1 5.2
2017-Mar-25 22:53N 56°18' W 152°12'910.1 060 / 13 1.3 5.2
2017-Mar-25 22:00N 56°24' W 152°24'660.0 070 / 71001.8 1.4-6.2 5.2
2017-Mar-25 21:54N 56°18' W 152°24'7 7.6 050 / 11 1.4 5.2
2017-Mar-25 21:00N 56°24' W 152°30'672.0 060 / 71001.7 2.2-5.3 5.2
2017-Mar-25 20:55N 56°18' W 152°30'6 6.5 080 / 6 1.9 5.2
2017-Mar-25 20:00N 56°24' W 152°30'672.0 090 / 71001.6 1.5-5.6 5.2
2017-Mar-25 19:55N 56°18' W 152°30'3 3.6 070 / 8 1.6 5.2
2017-Mar-25 19:00N 56°18' W 152°24'0 0.0 090 / 91001.5 1.1-5.3 5.1
2017-Mar-25 18:56N 56°18' W 152°24'1212.5 060 / 7 1.3 5.1
2017-Mar-25 18:00N 56°24' W 152°42'0 0.0 030 / 51001.4 1.4-5.6 4.1
2017-Mar-25 17:57N 56°24' W 152°42'7 7.2 040 / 5 1.1 4.2
2017-Mar-25 17:00N 56°18' W 152°48'7205.9 050 / 81001.2 1.2-4.8 5.0
2017-Mar-25 16:58N 56°12' W 152°42'1515.1 070 / 7 1.2 4.8
2017-Mar-25 16:00N 56°18' W 153°06'0 0.0 020 / 81001.5 1.0-6.1 3.7
2017-Mar-25 15:58N 56°18' W 153°06'0 0.0 010 / 8 1.0 3.7
2017-Mar-25 15:00N 56°18' W 153°06'3199.7 050 / 71001.9 1.1-5.8 4.1
2017-Mar-25 14:59N 56°18' W 153°00'3 3.4 050 / 6 1.1 4.1
2017-Mar-25 14:00N 56°18' W 152°54'7 6.7 050 / 71002.3 1.1-5.8 4.1
2017-Mar-25 13:00N 56°18' W 153°06'3 9.5 120 / 51002.6 1.1-5.9 3.6
2017-Mar-25 12:39N 56°18' W 153°12'6 9.2 080 / 4 1.2 4.2
2017-Mar-25 12:00N 56°12' W 153°12'618.0 110 / 51002.7 1.4-5.0 4.7
2017-Mar-25 11:40N 56°06' W 153°12'1217.5 090 / 6 1.6 4.2
2017-Mar-25 11:00N 56°12' W 153°30'310.5 090 / 41003.0 1.6-4.2 4.4
2017-Mar-25 10:41N 56°12' W 153°36'710.1 080 / 5 1.6 4.5
2017-Mar-25 10:00N 56°06' W 153°30'928.4 080 / 91003.4 1.7-3.9 4.1
2017-Mar-25 09:41N 56°00' W 153°18'3 4.9 140 / 5 1.8 4.3
2017-Mar-25 09:00N 56°00' W 153°24'311.2 150 / 51003.8 1.8-4.1 4.7
2017-Mar-25 08:42N 56°00' W 153°30'912.9 180 / 8 2.0 4.3
2017-Mar-25 08:00N 56°06' W 153°42'621.2 110 / 51004.2 1.8-4.7 4.4
2017-Mar-25 07:43N 56°00' W 153°42'912.6 090 / 6 1.8 5.0
2017-Mar-25 07:00N 55°54' W 153°30'0 0.0 080 / 61004.8 1.9-4.2 5.3
2017-Mar-25 06:44N 55°54' W 153°30'1013.8 250 / 4 2.0 5.1
2017-Mar-25 06:00N 55°54' W 153°48'312.6 160 / 21005.0 2.1-3.5 5.2
2017-Mar-25 05:44N 55°54' W 153°54'0 0.0 010 / 6 2.2 5.1
2017-Mar-25 05:00N 55°54' W 153°54'0 0.0 290 / 91005.6 1.9-2.2 5.1
2017-Mar-25 04:45N 55°54' W 153°54'7 9.2 320 / 10 1.9 5.0
2017-Mar-25 04:00N 56°00' W 154°00'0 0.0 330 / 81006.0 1.8-2.5 4.5
2017-Mar-25 03:46N 56°00' W 154°00'0 0.0 330 / 7 1.7 4.5
2017-Mar-25 03:00N 56°00' W 154°00'731.7 330 / 61006.4 1.8-2.7 5.2
2017-Mar-25 02:47N 55°54' W 153°54'0 0.0 340 / 5 1.8 5.2
2017-Mar-25 02:00N 55°54' W 153°54'315.5 350 / 61006.8 1.7-2.9 5.2
2017-Mar-25 01:47N 55°54' W 153°48'3 4.3 320 / 5 1.7 5.2
2017-Mar-25 01:00N 55°54' W 153°54'0 0.0 330 / 51007.5 2.1-3.2 5.2
2017-Mar-25 00:48N 55°54' W 153°54'0 0.0 340 / 3 1.4 5.2
2017-Mar-25 00:00N 55°54' W 153°54'3 3.4 350 / 61007.9 1.3-3.7 5.1
2017-Mar-24 23:00N 55°54' W 153°48'636.0 340 / 61008.4 0.9-4.9 5.1
2017-Mar-24 22:50N 55°48' W 153°48'1214.4 330 / 9 1.0 5.1
2017-Mar-24 22:00N 56°00' W 153°48'636.0 310 / 71009.0 1.2-4.8 4.7
2017-Mar-24 21:50N 55°54' W 153°48'1214.1 310 / 7 0.6 5.0
2017-Mar-24 21:00N 55°48' W 154°06'0 0.0 320 / 111009.4 0.1-5.8 4.0
2017-Mar-24 20:52N 55°48' W 154°06'7 7.9 320 / 12 0.2 4.4
2017-Mar-24 20:00N 55°54' W 154°12'645.0 340 / 101009.8 -0.4-7.3 4.1
2017-Mar-24 19:52N 55°48' W 154°12'0 0.0 320 / 11 -0.3 4.1
2017-Mar-24 19:00N 55°48' W 154°12'328.9 320 / 171009.5 -0.4-7.4 4.1
2017-Mar-24 18:53N 55°48' W 154°06'7 7.6 330 / 15 -0.3 4.1
2017-Mar-24 18:00N 55°48' W 154°18'333.7 320 / 141010.3 -0.2-6.5 4.5
2017-Mar-24 17:54N 55°48' W 154°12'1213.3 330 / 18 -0.0 4.3
2017-Mar-24 17:00N 56°00' W 154°12'782.5 320 / 191010.0 -0.5-7.4 4.3
2017-Mar-24 16:55N 55°54' W 154°06'7 7.5 320 / 18 -0.6 4.3
2017-Mar-24 16:00N 56°00' W 154°00'0 0.0 330 / 211010.4 -0.5-6.5 4.3
2017-Mar-24 15:55N 56°00' W 154°00'1011.0 310 / 18 -0.3 4.4
2017-Mar-24 15:00N 56°00' W 154°18'690.0 330 / 201010.8 -0.6-6.1 4.4
2017-Mar-24 14:56N 55°54' W 154°18'1213.4 330 / 20 -0.5 4.1
2017-Mar-24 14:00N 56°06' W 154°24'6120.0 330 / 221011.1 -0.6-6.2 4.1
2017-Mar-24 13:57N 56°00' W 154°24'7 7.1 330 / 22 -0.6 4.1
2017-Mar-24 13:00N 56°00' W 154°36'0 0.0 360 / 211011.4 -0.6-6.6 4.2
2017-Mar-24 12:58N 56°00' W 154°36'1212.1 360 / 19 -0.4 4.5
2017-Mar-24 12:00N 55°54' W 154°18'3201.8 330 / 241009.010.8 1.0-5.7-4.6
2017-Mar-24 11:59N 55°54' W 154°24'1515.0 330 / 21 -0.3 4.6
2017-Mar-24 11:00N 56°00' W 154°48'7412.6 340 / 231012.2 -0.5-6.2 4.5
2017-Mar-24 10:59N 55°54' W 154°42'3 3.4 340 / 22 -0.4 4.5
2017-Mar-24 10:00N 55°54' W 154°48'6 6.0 350 / 181012.2 -0.3-5.9 4.5
2017-Mar-24 09:00N 55°48' W 154°48'618.0 330 / 191012.4 -0.1-6.3 4.5
2017-Mar-24 08:40N 55°42' W 154°48'913.6 340 / 22 0.2 4.3
2017-Mar-24 08:00N 55°48' W 155°00'720.7 340 / 181012.4 0.1-5.7 4.5
2017-Mar-24 07:40N 55°42' W 155°06'3 5.1 350 / 18 0.2 4.5
2017-Mar-24 07:00N 55°42' W 155°00'721.8 1011.9 0.7-5.9 4.5
2017-Mar-24 06:41N 55°36' W 154°54'1014.9 350 / 21 0.8 4.6
2017-Mar-24 06:00N 55°36' W 155°12'0 0.0 350 / 171012.1 1.0-5.9 4.5
2017-Mar-24 05:42N 55°36' W 155°12'1014.5 350 / 16 1.2 4.6
2017-Mar-24 05:00N 55°36' W 155°30'724.3 320 / 141012.5 1.4-6.3 4.6
2017-Mar-24 04:43N 55°30' W 155°36'1014.2 330 / 14 1.5 4.6
2017-Mar-24 04:00N 55°30' W 155°54'621.2 320 / 151012.7 1.5-5.4 4.5
2017-Mar-24 03:43N 55°24' W 155°54'1014.3 310 / 18 1.4 4.5
2017-Mar-24 03:00N 55°24' W 156°12'312.8 330 / 171013.2 1.6-6.8 3.1
2017-Mar-24 02:44N 55°24' W 156°18'912.4 320 / 18 1.4 3.2
2017-Mar-24 02:00N 55°30' W 156°30'0 0.0 320 / 171013.4 1.4-8.2 3.3
2017-Mar-24 01:45N 55°30' W 156°30'0 0.0 320 / 16 0.8 3.3
2017-Mar-24 01:00N 55°30' W 156°30'0 0.0 330 / 171013.3 0.3-9.5 3.3
2017-Mar-24 00:46N 55°30' W 156°30'0 0.0 330 / 18 0.4 3.3
2017-Mar-24 00:00N 55°30' W 156°30'7 6.8 330 / 161013.5 0.7-7.5 3.5
2017-Mar-23 23:00N 55°30' W 156°42'0 0.0 330 / 201013.4 0.9-7.9 3.3
2017-Mar-23 22:47N 55°30' W 156°42'1417.6 330 / 19 1.2 3.3
2017-Mar-23 22:00N 55°42' W 156°54'316.9 330 / 181013.3 0.3-9.0 3.0
2017-Mar-23 21:48N 55°42' W 156°48'1518.5 340 / 21 -0.3 3.3
2017-Mar-23 21:00N 55°36' W 156°24'318.5 350 / 191010.610.8 1.5-8.9-3.2
2017-Mar-23 20:49N 55°36' W 156°30'7 8.3 350 / 20 0.2 3.2
2017-Mar-23 20:00N 55°36' W 156°18'737.6 350 / 171011.9 -0.0-7.1 3.1
2017-Mar-23 19:49N 55°30' W 156°12'1012.5 350 / 15 0.1 3.2
2017-Mar-23 19:00N 55°30' W 155°54'320.4 350 / 211011.1 0.6-6.5 4.5
2017-Mar-23 18:50N 55°30' W 155°48'6 7.2 350 / 22 0.8 4.5
2017-Mar-23 18:00N 55°36' W 155°48'745.2 340 / 241009.110.8 1.1-6.6-3.1
2017-Mar-23 17:51N 55°36' W 156°00'1213.9 330 / 23 0.1 3.1
2017-Mar-23 17:00N 55°42' W 156°18'0 0.0 330 / 211010.8 -0.8-8.3 3.2
2017-Mar-23 16:52N 55°42' W 156°18'910.4 340 / 21 -0.6 3.3
2017-Mar-23 16:00N 55°48' W 156°30'645.0 340 / 211010.9 -0.9-7.2 3.2
2017-Mar-23 15:52N 55°42' W 156°30'6 6.9 330 / 23 -0.7 3.3
2017-Mar-23 15:00N 55°48' W 156°30'651.4 330 / 211010.7 -1.0-8.5 3.4
2017-Mar-23 14:53N 55°42' W 156°30'3 3.8 340 / 21 -1.1 3.4
2017-Mar-23 14:00N 55°42' W 156°24'333.8 340 / 201010.1 -1.4-8.1 3.4
2017-Mar-23 13:54N 55°42' W 156°18'1213.1 330 / 19 -1.4 3.3
2017-Mar-23 13:00N 55°48' W 156°36'0 0.0 330 / 251010.1 -1.3-8.1 3.4
2017-Mar-23 12:55N 55°48' W 156°36'1516.1 340 / 24 -1.1 3.4
2017-Mar-23 12:00N 55°54' W 157°00'672.0 330 / 261010.3 -1.7-8.2 3.1
2017-Mar-23 11:55N 55°48' W 157°00'1212.8 340 / 28 -1.7 3.1
2017-Mar-23 11:00N 55°54' W 156°42'350.5 340 / 241009.2 -1.8-7.8 3.2
2017-Mar-23 10:56N 55°54' W 156°36'7 7.2 350 / 23 -1.6 3.3
2017-Mar-23 10:00N 55°54' W 156°24'7137.6 350 / 181009.2 -1.8-7.9 3.2
2017-Mar-23 09:57N 55°48' W 156°18'1010.7 350 / 20 -1.9 3.3
2017-Mar-23 09:00N 55°48' W 156°00'0 0.0 340 / 181008.5 -0.8-8.1 4.1
2017-Mar-23 08:58N 55°48' W 156°00'7 7.1 350 / 19 -0.7 4.1
2017-Mar-23 08:00N 55°54' W 156°06'0 0.0 340 / 151008.2 -0.9-8.5 3.3
2017-Mar-23 07:58N 55°54' W 156°06'1515.2 340 / 17 -0.9 3.3
2017-Mar-23 07:00N 56°00' W 156°30'0 0.0 320 / 201008.8 -2.3-8.1 3.3
2017-Mar-23 06:59N 56°00' W 156°30'1212.7 320 / 21 -2.3 3.3
2017-Mar-23 06:00N 56°12' W 156°36'1211.7 330 / 231008.1 -2.6-8.7 3.5
2017-Mar-23 05:00N 56°06' W 156°18'925.7 340 / 191007.8 -1.2-9.3 3.3
2017-Mar-23 04:39N 56°00' W 156°06'710.6 350 / 12 -0.3 3.1
2017-Mar-23 04:00N 56°06' W 156°00'310.0 030 / 91007.5 -0.9-5.9 3.3
2017-Mar-23 03:40N 56°06' W 155°54'913.5 030 / 10 -0.9 3.3
2017-Mar-23 03:00N 56°12' W 156°06'310.5 320 / 101007.2 -0.2-9.5 3.4
2017-Mar-23 02:41N 56°12' W 156°12'913.1 330 / 17 0.4 3.4
2017-Mar-23 02:00N 56°18' W 156°24'722.9 320 / 161007.4 -0.7-7.6 3.5
2017-Mar-23 01:42N 56°12' W 156°18'7 9.8 310 / 17 -0.8 3.6
2017-Mar-23 01:00N 56°18' W 156°24'722.9 320 / 161007.4 -1.0-8.1 3.5
2017-Mar-23 00:42N 56°12' W 156°18'0 0.0 330 / 13 -0.8 3.6
2017-Mar-23 00:00N 56°12' W 156°18'1211.7 330 / 151007.4 -0.1-8.6 3.2
2017-Mar-22 23:00N 56°18' W 156°36'312.5 330 / 171007.9 -0.7-8.5 3.5
2017-Mar-22 22:44N 56°18' W 156°42'1216.4 340 / 18 -1.7 3.3
2017-Mar-22 22:00N 56°30' W 156°42'935.8 330 / 181007.6 -1.8-9.1 3.3
2017-Mar-22 21:45N 56°24' W 156°30'7 8.9 340 / 16 -1.2 3.4
2017-Mar-22 21:00N 56°24' W 156°18'727.4 340 / 91007.7 -0.9-9.6 3.5
2017-Mar-22 20:45N 56°18' W 156°12'7 8.9 320 / 9 -0.8 3.4
2017-Mar-22 20:00N 56°18' W 156°00'728.5 360 / 121007.4 -0.2-7.6 3.3
2017-Mar-22 19:46N 56°18' W 155°48'7 8.9 360 / 17 -0.3 3.1
2017-Mar-22 19:00N 56°24' W 155°54'0 0.0 360 / 201007.3 -0.1-7.9 3.5
2017-Mar-22 18:47N 56°24' W 155°54'1214.8 010 / 18 -0.1 3.5
2017-Mar-22 18:00N 56°30' W 156°12'316.6 330 / 71007.9 0.8-8.7 3.4
2017-Mar-22 17:48N 56°30' W 156°06'0 0.0 330 / 6 -0.2 3.4
2017-Mar-22 17:00N 56°30' W 156°06'630.0 330 / 71008.0 -0.3-8.7 3.4
2017-Mar-22 16:48N 56°24' W 156°06'0 0.0 320 / 9 -0.3 3.4
2017-Mar-22 16:00N 56°24' W 156°06'318.1 360 / 151007.9 -0.1-9.4 3.4
2017-Mar-22 15:49N 56°24' W 156°00'911.0 350 / 18 -0.1 3.4
2017-Mar-22 15:00N 56°30' W 156°12'319.9 320 / 131006.910.8 -0.0-8.1-3.5
2017-Mar-22 14:50N 56°30' W 156°18'1213.9 320 / 13 -1.1 3.5
2017-Mar-22 14:00N 56°36' W 156°36'322.0 310 / 171009.1 -1.8-9.2 3.1
2017-Mar-22 13:51N 56°36' W 156°42'6 7.1 300 / 18 -1.9 3.3
2017-Mar-22 13:00N 56°42' W 156°42'324.7 310 / 181009.3 -1.9-9.9 3.3
2017-Mar-22 12:52N 56°42' W 156°36'7 7.6 290 / 14 -1.7 3.3
2017-Mar-22 12:00N 56°42' W 156°24'751.4 360 / 121009.510.8 -0.8-11.0 3.5
2017-Mar-22 11:52N 56°36' W 156°18'3 3.8 360 / 13 -0.8 3.4
2017-Mar-22 11:00N 56°36' W 156°12'328.3 350 / 121009.8 -0.7-9.0 3.3
2017-Mar-22 10:53N 56°36' W 156°06'0 0.0 340 / 13 -0.8 3.3
2017-Mar-22 10:00N 56°36' W 156°06'0 0.0 360 / 151010.2 -0.9-9.9 3.3
2017-Mar-22 09:54N 56°36' W 156°06'3 3.7 010 / 16 -1.0 3.3
2017-Mar-22 09:00N 56°36' W 156°12'0 0.0 330 / 121010.4 -1.2-8.6 3.3
2017-Mar-22 08:55N 56°36' W 156°12'1010.8 330 / 14 -1.4 3.3
2017-Mar-22 08:00N 56°36' W 155°54'7102.8 1010.1 -2.1-7.7 3.5
2017-Mar-22 07:56N 56°30' W 155°48'1212.4 360 / 24 -2.2 3.6
2017-Mar-22 07:00N 56°36' W 155°30'0 0.0 360 / 251010.5 -2.3-7.0 3.4
2017-Mar-22 06:56N 56°36' W 155°30'1212.4 360 / 25 -2.2 3.3
2017-Mar-22 06:00N 56°42' W 155°48'7136.9 350 / 261010.7 -2.6-7.5 3.4
2017-Mar-22 05:57N 56°36' W 155°42'1212.2 350 / 27 -2.8 3.4
2017-Mar-22 05:00N 56°42' W 156°00'0 0.0 010 / 241011.3 -3.4-9.4 3.0
2017-Mar-22 04:58N 56°42' W 156°00'0 0.0 020 / 23 -3.0 3.0
2017-Mar-22 04:00N 56°42' W 156°00'7410.8 010 / 241011.4 -3.2-9.5 3.4
2017-Mar-22 03:59N 56°36' W 155°54'7 7.0 010 / 23 -3.1 3.4
2017-Mar-22 03:00N 56°42' W 156°00'0 0.0 010 / 241011.3 -1.7-8.6 3.1
2017-Mar-22 02:59N 56°42' W 156°00'1414.7 010 / 26 -1.6 3.3
2017-Mar-22 02:00N 56°48' W 156°24'7 6.8 350 / 141012.4 -0.8-10.1 3.5
2017-Mar-22 01:00N 56°54' W 156°18'925.4 310 / 41012.6 -1.2-11.2 3.2
2017-Mar-22 00:39N 56°48' W 156°06'710.1 010 / 26 -2.7 3.2
2017-Mar-22 00:00N 56°48' W 155°54'10 9.9 1012.1 -3.6-9.5 3.1
2017-Mar-21 23:00N 56°48' W 155°36'721.6 350 / 271012.5 -3.9-8.8 3.4
2017-Mar-21 22:41N 56°42' W 155°30'6 8.8 350 / 11 -3.8 3.1
2017-Mar-21 22:00N 56°48' W 155°30'620.0 340 / 241012.8 -4.0-8.2 3.1
2017-Mar-21 21:42N 56°42' W 155°30'0 0.0 350 / 26 -4.1 3.1
2017-Mar-21 21:00N 56°42' W 155°30'0 0.0 340 / 141012.9 -3.9-8.2 3.3
2017-Mar-21 20:42N 56°42' W 155°30'3 4.7 330 / 28 -3.7 3.1
2017-Mar-21 20:00N 56°42' W 155°24'723.3 350 / 291012.2 -4.1-7.9 3.3
2017-Mar-21 19:43N 56°42' W 155°12'6 8.4 330 / 27 -3.5 3.5
2017-Mar-21 19:00N 56°48' W 155°12'312.3 340 / 271012.2 -3.2-7.1 3.4
2017-Mar-21 18:44N 56°48' W 155°18'1215.7 330 / 28 -4.0 3.3
2017-Mar-21 18:00N 56°54' W 155°36'0 0.0 340 / 281012.8 -4.5-9.1 3.4
2017-Mar-21 17:45N 56°54' W 155°36'7 8.7 340 / 29 -4.6 3.5
2017-Mar-21 17:00N 56°54' W 155°48'0 0.0 340 / 311012.9 -5.4-11.1 3.1
2017-Mar-21 16:45N 56°54' W 155°48'911.8 350 / 31 -4.9 3.1
2017-Mar-21 16:00N 57°00' W 156°00'0 0.0 340 / 281013.0 -3.7-10.9 3.0
2017-Mar-21 15:46N 57°00' W 156°00'7 8.9 340 / 29 -3.7 3.0
2017-Mar-21 15:00N 57°06' W 155°54'315.0 350 / 371010.010.8 -4.0-11.8-3.1
2017-Mar-21 14:47N 57°06' W 156°00'3 4.2 350 / 37 -5.7 3.0
2017-Mar-21 14:00N 57°06' W 155°54'731.5 340 / 371012.6 -5.9-11.4 3.3
2017-Mar-21 13:47N 57°00' W 155°48'7 8.3 340 / 32 -5.6 3.2
2017-Mar-21 13:00N 57°00' W 155°36'315.1 330 / 301013.0 -5.0-11.1 3.4
2017-Mar-21 12:47N 57°00' W 155°30'3 4.2 330 / 29 -5.3 3.3
2017-Mar-21 12:00N 57°00' W 155°24'0 0.0 330 / 281013.5 -5.1-9.6 3.3
2017-Mar-21 11:48N 57°00' W 155°24'7 8.2 330 / 27 -5.3 3.3
2017-Mar-21 11:00N 57°00' W 155°12'737.3 330 / 261013.1 -4.5-8.5 3.3
2017-Mar-21 10:49N 56°54' W 155°06'7 8.4 330 / 25 -4.3 3.2
2017-Mar-21 10:00N 57°00' W 155°00'319.6 320 / 251013.2 -3.5-8.3 3.6
2017-Mar-21 09:50N 57°00' W 154°54'1417.2 310 / 19 -3.4 3.5
2017-Mar-21 09:00N 57°06' W 155°18'0 0.0 310 / 221014.0 -4.4-8.7 3.3
2017-Mar-21 08:51N 57°06' W 155°18'1113.5 310 / 25 -4.5 3.1
2017-Mar-21 08:00N 57°12' W 155°36'321.7 310 / 311014.1 -5.5-10.0 3.0
2017-Mar-21 07:51N 57°12' W 155°42'1113.5 310 / 31 -5.5 3.1
2017-Mar-21 07:00N 57°18' W 156°00'645.0 310 / 341014.2 -5.8-11.0 3.0
2017-Mar-21 06:52N 57°12' W 156°00'910.2 310 / 35 -6.4 2.9
2017-Mar-21 06:00N 57°18' W 155°48'327.8 300 / 281013.9 -5.4-10.9 3.2
2017-Mar-21 05:53N 57°18' W 155°42'6 7.3 320 / 26 -4.7 3.1
2017-Mar-21 05:00N 57°18' W 155°30'768.2 320 / 291013.8 -4.5-11.8 3.1
2017-Mar-21 04:54N 57°12' W 155°24'7 7.6 320 / 27 -4.2 3.5
2017-Mar-21 04:00N 57°18' W 155°30'768.2 310 / 261014.0 -4.1-10.5 3.3
2017-Mar-21 03:54N 57°12' W 155°24'6 6.7 320 / 27 -4.3 3.4
2017-Mar-21 03:00N 57°18' W 155°24'672.0 320 / 251014.1 -3.7-10.6 3.3
2017-Mar-21 02:55N 57°12' W 155°24'3 3.5 320 / 14 -2.7 3.5
2017-Mar-21 02:00N 57°12' W 155°18'348.8 340 / 181014.2 -2.9-9.1 3.5
2017-Mar-21 01:56N 57°12' W 155°12'1010.4 340 / 13 -2.9 3.5
2017-Mar-21 01:00N 57°12' W 154°54'6120.0 350 / 201014.4 -3.3-7.8 3.3
2017-Mar-21 00:57N 57°06' W 154°54'1213.1 340 / 20 -2.6 3.3
2017-Mar-21 00:00N 57°18' W 155°00'1414.3 320 / 211015.0 -3.2-8.4 3.5
2017-Mar-20 23:00N 57°24' W 155°24'397.0 330 / 251015.2 -3.7-9.2 3.2
2017-Mar-20 22:58N 57°24' W 155°18'1414.7 330 / 25 -3.8 3.1
2017-Mar-20 22:00N 57°30' W 155°42'6360.0 320 / 211015.0 -4.6-12.6 3.3
2017-Mar-20 21:59N 57°24' W 155°42'1515.7 320 / 17 -4.2 3.2
2017-Mar-20 21:00N 57°36' W 155°24'718.6 350 / 271014.6 -6.7-11.5 3.0
2017-Mar-20 20:38N 57°30' W 155°18'913.9 340 / 28 -7.1 3.3
2017-Mar-20 20:00N 57°24' W 155°06'3 9.2 330 / 221014.6 -6.3-9.5 3.4
2017-Mar-20 19:39N 57°24' W 155°00'0 0.0 340 / 19 -6.2 3.4
2017-Mar-20 19:00N 57°24' W 155°00'3 9.7 320 / 161014.9 -5.6-8.8 3.4
2017-Mar-20 18:40N 57°24' W 154°54'0 0.0 320 / 16 -5.4 3.4
2017-Mar-20 18:00N 57°24' W 154°54'618.9 330 / 171014.7 -5.6-9.2 3.3
2017-Mar-20 17:41N 57°18' W 154°54'6 8.8 330 / 19 -5.0 3.3
2017-Mar-20 17:00N 57°24' W 154°54'721.5 340 / 161014.3 -5.8-9.6 3.3
2017-Mar-20 16:41N 57°18' W 154°48'1217.6 330 / 18 -5.4 3.4
2017-Mar-20 16:00N 57°30' W 154°48'310.7 280 / 101014.3 -4.8-8.7 3.5
2017-Mar-20 15:42N 57°30' W 154°54'912.6 300 / 10 -5.7 3.5
2017-Mar-20 15:00N 57°36' W 155°06'311.3 310 / 171014.3 -7.6-11.6 3.5
2017-Mar-20 14:43N 57°36' W 155°12'0 0.0 310 / 16 -8.6 3.3
2017-Mar-20 14:00N 57°36' W 155°12'0 0.0 300 / 311013.8 -8.6-12.7 3.2
2017-Mar-20 13:44N 57°36' W 155°12'3 4.4 320 / 31 -8.2 3.3
2017-Mar-20 13:00N 57°36' W 155°06'0 0.0 320 / 291013.6 -8.3-12.1 3.6
2017-Mar-20 12:45N 57°36' W 155°06'3 4.3 320 / 28 -8.3 3.6
2017-Mar-20 12:00N 57°36' W 155°00'312.9 320 / 301011.010.8 -5.0-10.9 3.6
2017-Mar-20 11:45N 57°36' W 155°06'0 0.0 320 / 26 -7.1 3.4
2017-Mar-20 11:00N 57°36' W 155°06'729.2 310 / 251013.6 -7.6-11.3 3.6
2017-Mar-20 10:46N 57°30' W 155°00'6 7.8 310 / 24 -7.0 3.6
2017-Mar-20 10:00N 57°36' W 155°00'627.7 310 / 221013.5 -6.0-10.5 3.6
2017-Mar-20 09:47N 57°30' W 155°00'1114.5 310 / 26 -6.9 3.6
2017-Mar-20 09:00N 57°36' W 155°18'0 0.0 310 / 211013.5 -8.4-13.6 2.1
2017-Mar-20 08:48N 57°36' W 155°18'911.0 310 / 35 -9.1 2.5
2017-Mar-20 08:00N 57°42' W 155°06'316.0 320 / 151013.2 -6.1-11.9 2.5
2017-Mar-20 07:48N 57°42' W 155°00'911.0 290 / 13 -5.6 2.7
2017-Mar-20 07:00N 57°36' W 154°48'317.5 310 / 61013.1 -5.4-11.5 3.5
2017-Mar-20 06:49N 57°36' W 154°42'6 7.9 290 / 7 -5.2 3.5
2017-Mar-20 06:00N 57°36' W 154°30'319.3 230 / 71012.8 -4.5-9.5 3.6
2017-Mar-20 05:50N 57°36' W 154°24'1113.6 210 / 9 -4.7 3.1
2017-Mar-20 05:00N 57°42' W 154°42'0 0.0 280 / 121012.3 -4.8-11.1 3.1
2017-Mar-20 04:51N 57°42' W 154°42'910.3 280 / 13 -5.0 2.4
2017-Mar-20 04:00N 57°48' W 154°54'0 0.0 290 / 131011.6 -5.4-13.1 2.3
2017-Mar-20 03:52N 57°48' W 154°54'3 3.7 290 / 11 -5.2 2.5
2017-Mar-20 03:00N 57°48' W 154°48'0 0.0 290 / 121011.2 -5.1-13.9 2.2
2017-Mar-20 02:52N 57°48' W 154°48'3 3.7 280 / 14 -5.3 2.2
2017-Mar-20 02:00N 57°48' W 154°54'0 0.0 290 / 141011.0 -4.8-13.0 2.4
2017-Mar-20 01:53N 57°48' W 154°54'7 7.7 270 / 16 -4.5 2.2
2017-Mar-20 01:00N 57°54' W 154°48'331.9 290 / 111010.4 -5.0-12.0 3.0
2017-Mar-20 00:54N 57°54' W 154°42'3 3.5 290 / 12 -4.9 3.0
2017-Mar-20 00:00N 57°54' W 154°48'3 3.2 280 / 141010.3 -6.1-12.1 1.8
2017-Mar-19 23:00N 57°54' W 154°42'0 0.0 280 / 151010.0 -6.0-11.1 2.9
2017-Mar-19 22:55N 57°54' W 154°42'3 3.5 290 / 14 -6.1 3.0
2017-Mar-19 22:00N 57°54' W 154°36'690.0 290 / 111009.8 -5.1-10.3 1.9
2017-Mar-19 21:56N 57°48' W 154°36'6 6.4 290 / 16 -5.0 3.1
2017-Mar-19 21:00N 57°54' W 154°36'6120.0 310 / 91009.310.8 -4.7-10.3 1.5
2017-Mar-19 20:57N 57°48' W 154°36'1010.1 300 / 9 -4.7 1.4
2017-Mar-19 20:00N 57°48' W 154°18'7204.0 140 / 51008.8 -4.6-8.7 3.6
2017-Mar-19 19:58N 57°42' W 154°12'7 7.0 130 / 4 -4.6 3.7
2017-Mar-19 19:00N 57°48' W 154°06'0 0.0 040 / 31008.3 -4.2-10.8 2.6
2017-Mar-19 18:59N 57°48' W 154°06'0 0.0 050 / 4 -4.4 3.0
2017-Mar-19 18:00N 57°48' W 154°06'0 0.0 040 / 81007.6 -4.6-9.8 2.8
2017-Mar-19 17:59N 57°48' W 154°06'3 3.3 050 / 6 -4.5 2.7
2017-Mar-19 17:00N 57°48' W 154°12'348.0 050 / 81006.9 -4.8-10.1 2.5
2017-Mar-19 16:56N 57°48' W 154°06'0 0.0 070 / 8 -4.9 2.5
2017-Mar-19 16:00N 57°48' W 154°06'0 0.0 060 / 71006.6 -4.7-10.3 3.1
2017-Mar-19 15:57N 57°48' W 154°06'9 9.2 060 / 8 -4.8 2.7
2017-Mar-19 15:00N 57°54' W 154°18'0 0.0 040 / 101006.3 -4.9-11.5 1.5
2017-Mar-19 14:57N 57°54' W 154°18'3 3.4 050 / 13 -4.8 1.5
2017-Mar-19 14:00N 57°54' W 154°24'395.7 070 / 121005.7 -5.1-11.1 1.2
2017-Mar-19 13:58N 57°54' W 154°18'6 6.6 080 / 11 -5.0 1.2
2017-Mar-19 13:00N 57°54' W 154°30'3191.3 100 / 131005.6 -4.5-10.9 1.1
2017-Mar-19 12:59N 57°54' W 154°24'7 6.9 090 / 14 -4.5 1.1
2017-Mar-19 12:00N 58°00' W 154°30'9 8.7 090 / 101005.1 -4.3-10.1 0.7
2017-Mar-19 11:00N 58°06' W 154°18'925.0 050 / 101005.0 -5.0-9.8 1.0
2017-Mar-19 10:39N 58°00' W 154°06'913.5 080 / 13 -4.8 1.6
2017-Mar-19 10:00N 57°54' W 153°54'3 9.6 050 / 171004.9 -5.3-11.4 3.6
2017-Mar-19 09:40N 57°54' W 153°48'710.2 040 / 17 -5.3 3.5
2017-Mar-19 09:00N 58°00' W 153°42'0 0.0 010 / 231004.7 -5.4-10.3 3.5
2017-Mar-19 08:40N 58°00' W 153°42'913.1 020 / 21 -5.5 3.5
2017-Mar-19 08:00N 58°06' W 153°54'310.0 020 / 161004.3 -4.8-9.5 3.3
2017-Mar-19 07:41N 58°06' W 154°00'3 4.6 030 / 13 -4.8 0.8
2017-Mar-19 07:00N 58°06' W 154°06'310.6 040 / 61003.9 -4.6-9.9 0.8
2017-Mar-19 06:42N 58°06' W 154°00'3 4.5 060 / 10 -4.5 1.2
2017-Mar-19 06:00N 58°06' W 154°06'0 0.0 080 / 61003.7 -3.8-9.1 1.1
2017-Mar-19 05:43N 58°06' W 154°06'0 0.0 080 / 8 -3.5 1.3
2017-Mar-19 05:00N 58°06' W 154°06'311.2 060 / 71003.5 -3.6-9.0 1.3
2017-Mar-19 04:43N 58°06' W 154°00'7 9.5 070 / 10 -3.6 1.1
2017-Mar-19 04:00N 58°12' W 154°06'311.9 050 / 91003.3 -4.0-9.8 1.8
2017-Mar-19 03:44N 58°12' W 154°00'6 8.6 040 / 10 -4.0 3.3
2017-Mar-19 03:00N 58°12' W 153°48'727.1 020 / 71003.2 -3.0-8.8 3.7
2017-Mar-19 02:45N 58°06' W 153°42'6 8.0 200 / 3 -1.9 3.8
2017-Mar-19 02:00N 58°12' W 153°42'729.1 140 / 51003.4 -2.6-8.7 3.7
2017-Mar-19 01:46N 58°06' W 153°36'0 0.0 200 / 5 -3.0 3.6
2017-Mar-19 01:00N 58°06' W 153°36'627.7 240 / 71003.5 -2.5-9.7 3.7
2017-Mar-19 00:47N 58°00' W 153°36'6 7.7 230 / 7 -2.5 3.7
2017-Mar-19 00:00N 58°06' W 153°36'0 0.0 230 / 61003.8 -2.9-8.0 3.7
2017-Mar-18 23:00N 58°06' W 153°36'0 0.0 230 / 91004.0 -3.3-7.6 3.7
2017-Mar-18 22:48N 58°06' W 153°36'6 7.9 230 / 6 -3.5 3.6
2017-Mar-18 22:00N 58°06' W 153°24'317.3 280 / 51004.2 -2.8-8.2 3.5
2017-Mar-18 21:49N 58°06' W 153°18'7 8.3 290 / 4 -2.4 3.6
2017-Mar-18 21:00N 58°12' W 153°24'637.9 250 / 91002.510.8 -1.1-7.9-4.0
2017-Mar-18 20:50N 58°12' W 153°36'1518.3 260 / 6 -3.3 4.0
2017-Mar-18 20:00N 58°24' W 153°54'640.0 320 / 141004.5 -4.9-13.2 2.0
2017-Mar-18 19:51N 58°18' W 153°54'910.2 320 / 20 -5.6 2.1
2017-Mar-18 19:00N 58°24' W 153°42'321.0 290 / 171004.3 -5.2-13.5 2.7
2017-Mar-18 18:51N 58°24' W 153°36'1113.2 310 / 16 -5.1 3.3
2017-Mar-18 18:00N 58°18' W 153°18'323.6 280 / 121004.4 -4.1-13.2 4.1
2017-Mar-18 17:52N 58°18' W 153°12'0 0.0 300 / 12 -4.1 4.0
2017-Mar-18 17:00N 58°18' W 153°12'651.4 310 / 121004.7 -4.1-10.3 3.7
2017-Mar-18 16:53N 58°12' W 153°12'6 6.8 290 / 8 -4.2 3.6
2017-Mar-18 16:00N 58°18' W 153°12'767.8 300 / 101004.8 -4.1-9.7 3.6
2017-Mar-18 15:54N 58°12' W 153°06'7 7.5 310 / 7 -3.7 3.6
2017-Mar-18 15:00N 58°18' W 153°12'767.8 320 / 121005.0 -4.2-9.4 3.6
2017-Mar-18 14:54N 58°12' W 153°06'1213.3 320 / 15 -4.2 3.7
2017-Mar-18 14:00N 58°24' W 153°06'0 0.0 300 / 111005.5 -4.6-11.6 4.0
2017-Mar-18 13:55N 58°24' W 153°06'1112.2 300 / 13 -4.7 3.7
2017-Mar-18 13:00N 58°30' W 153°24'347.0 300 / 191005.2 -5.4-14.7 3.0
2017-Mar-18 12:56N 58°30' W 153°18'1313.4 300 / 18 -5.3 2.5
2017-Mar-18 12:00N 58°30' W 152°54'362.7 290 / 191004.010.8 -3.6-12.7-4.0
2017-Mar-18 11:57N 58°30' W 153°00'9 9.1 280 / 16 -3.5 3.9
2017-Mar-18 11:00N 58°36' W 152°48'7203.0 330 / 151006.2 -3.7-8.2 4.3
2017-Mar-18 10:58N 58°30' W 152°42'1414.0 340 / 16 -3.9 4.3
2017-Mar-18 10:00N 58°42' W 152°30'0 0.0 320 / 351004.9 -5.8-9.2 4.5
2017-Mar-18 09:59N 58°42' W 152°30'9 9.5 320 / 36 -6.2 4.5
2017-Mar-18 09:00N 58°42' W 152°12'0 0.0 330 / 291005.4 -5.0-8.9 4.4
2017-Mar-18 08:59N 58°42' W 152°12'3 3.2 320 / 26 -4.9 4.5
2017-Mar-18 08:00N 58°42' W 152°06'719.3 320 / 301005.5 -5.2-9.0 4.8
2017-Mar-18 07:39N 58°36' W 152°00'3 4.8 320 / 29 -5.2 5.0
2017-Mar-18 07:00N 58°36' W 151°54'3 9.4 310 / 261005.8 -4.2-7.6 5.0
2017-Mar-18 06:40N 58°36' W 151°48'6 9.0 310 / 26 -4.5 5.1
2017-Mar-18 06:00N 58°30' W 151°48'618.0 300 / 331005.8 -4.6-8.2 4.8
2017-Mar-18 05:40N 58°24' W 151°48'710.2 310 / 30 -3.9 4.8
2017-Mar-18 05:00N 58°18' W 151°54'2512.4 310 / 301006.8 -5.1-9.8 3.3
2017-Mar-18 03:00N 57°54' W 152°06'621.2 340 / 171007.7 -3.2-10.6 3.7
2017-Mar-18 02:43N 57°48' W 152°06'6 8.9 320 / 19 -2.5 3.5
2017-Mar-18 02:00N 57°48' W 152°18'622.5 330 / 141008.2 -2.0-11.4 3.1
2017-Mar-18 01:44N 57°42' W 152°18'7 9.3 320 / 17 -0.6 3.1
2017-Mar-18 01:00N 57°48' W 152°24'622.5 220 / 91008.5 -1.5-12.1 2.3
2017-Mar-18 00:44N 57°42' W 152°24'6 8.2 240 / 10 -1.6 2.3
2017-Mar-18 00:00N 57°48' W 152°24'0 0.0 240 / 81008.8 -1.4-12.2 2.3
2017-Mar-17 23:00N 57°48' W 152°24'625.7 230 / 41009.3 -1.4-11.1 2.3
2017-Mar-17 22:46N 57°42' W 152°24'6 7.8 200 / 4 -1.7 2.3
2017-Mar-17 22:00N 57°48' W 152°24'   190 / 61009.8 -1.6-11.7 2.3

Dump ship's entire track history